<?xml version='1.0' encoding='utf-8'?>
<gpx xmlns="http://www.topografix.com/GPX/1/1" xmlns:xsi="http://www.w3.org/2001/XMLSchema-instance" version="v1.1.5" creator="iTravel Tech Inc. - http://www.itravel-tech.com" xsi:schemaLocation="http://www.topografix.com/GPX/1/1 http://www.topografix.com/GPX/1/1/gpx.xsd http://www.topografix.com/GPX/gpx_overlay/0/3 http://www.topografix.com/GPX/gpx_overlay/0/3/gpx_overlay.xsd http://www.topografix.com/GPX/gpx_modified/0/1 http://www.topografix.com/GPX/gpx_modified/0/1/gpx_modified.xsd">
<trk>
<name>Holux2010/08/29_10:33</name>
<trkseg>
<trkpt lat="55.900188" lon="26.528690">
<ele>110.5</ele>
<time>2010-08-29T07:33:29Z</time>
<desc>lat.=55.900188, lon.=26.528690, Alt.=105.700256m. Speed=0.324000m/h.</desc>
<speed>0.090000</speed>
</trkpt>
<trkpt lat="55.900295" lon="26.529005">
<ele>109.2</ele>
<time>2010-08-29T07:33:39Z</time>
<desc>lat.=55.900295, lon.=26.529005, Alt.=119.405334m. Speed=0.468000m/h.</desc>
<speed>0.130000</speed>
</trkpt>
<trkpt lat="55.900024" lon="26.528679">
<ele>110.6</ele>
<time>2010-08-29T07:35:43Z</time>
<desc>lat.=55.900024, lon.=26.528679, Alt.=115.202209m. Speed=2.124000m/h.</desc>
<speed>0.590000</speed>
</trkpt>
<trkpt lat="55.900116" lon="26.528749">
<ele>110.7</ele>
<time>2010-08-29T07:35:48Z</time>
<desc>lat.=55.900116, lon.=26.528749, Alt.=114.014709m. Speed=0.288000m/h.</desc>
<speed>0.080000</speed>
</trkpt>
<trkpt lat="55.900158" lon="26.528002">
<ele>109.2</ele>
<time>2010-08-29T07:37:20Z</time>
<desc>lat.=55.900158, lon.=26.528002, Alt.=113.045959m. Speed=10.296000m/h.</desc>
<speed>2.860000</speed>
</trkpt>
<trkpt lat="55.900494" lon="26.528322">
<ele>107.7</ele>
<time>2010-08-29T07:37:33Z</time>
<desc>lat.=55.900494, lon.=26.528322, Alt.=108.528381m. Speed=2.520000m/h.</desc>
<speed>0.700000</speed>
</trkpt>
<trkpt lat="55.900837" lon="26.528265">
<ele>109.9</ele>
<time>2010-08-29T07:37:47Z</time>
<desc>lat.=55.900837, lon.=26.528265, Alt.=107.047913m. Speed=4.140000m/h.</desc>
<speed>1.150000</speed>
</trkpt>
<trkpt lat="55.902672" lon="26.530699">
<ele>108.1</ele>
<time>2010-08-29T07:38:50Z</time>
<desc>lat.=55.902672, lon.=26.530699, Alt.=122.219788m. Speed=17.712000m/h.</desc>
<speed>4.920000</speed>
</trkpt>
<trkpt lat="55.903053" lon="26.530748">
<ele>107.4</ele>
<time>2010-08-29T07:38:59Z</time>
<desc>lat.=55.903053, lon.=26.530748, Alt.=119.280334m. Speed=20.520000m/h.</desc>
<speed>5.700000</speed>
</trkpt>
<trkpt lat="55.903351" lon="26.530439">
<ele>106.9</ele>
<time>2010-08-29T07:39:09Z</time>
<desc>lat.=55.903351, lon.=26.530439, Alt.=115.741272m. Speed=14.904000m/h.</desc>
<speed>4.140000</speed>
</trkpt>
<trkpt lat="55.905354" lon="26.532768">
<ele>107.5</ele>
<time>2010-08-29T07:39:56Z</time>
<desc>lat.=55.905354, lon.=26.532768, Alt.=116.641663m. Speed=21.743999m/h.</desc>
<speed>6.040000</speed>
</trkpt>
<trkpt lat="55.905632" lon="26.533209">
<ele>108.0</ele>
<time>2010-08-29T07:40:12Z</time>
<desc>lat.=55.905632, lon.=26.533209, Alt.=112.383850m. Speed=6.120000m/h.</desc>
<speed>1.700000</speed>
</trkpt>
<trkpt lat="55.905205" lon="26.536133">
<ele>108.5</ele>
<time>2010-08-29T07:40:51Z</time>
<desc>lat.=55.905205, lon.=26.536133, Alt.=122.036194m. Speed=14.400000m/h.</desc>
<speed>4.000000</speed>
</trkpt>
<trkpt lat="55.905296" lon="26.536530">
<ele>108.5</ele>
<time>2010-08-29T07:40:59Z</time>
<desc>lat.=55.905296, lon.=26.536530, Alt.=117.895569m. Speed=10.080000m/h.</desc>
<speed>2.800000</speed>
</trkpt>
<trkpt lat="55.905769" lon="26.536974">
<ele>111.6</ele>
<time>2010-08-29T07:47:16Z</time>
<desc>lat.=55.905769, lon.=26.536974, Alt.=110.967834m. Speed=13.824000m/h.</desc>
<speed>3.840000</speed>
</trkpt>
<trkpt lat="55.907993" lon="26.538330">
<ele>118.0</ele>
<time>2010-08-29T07:48:15Z</time>
<desc>lat.=55.907993, lon.=26.538330, Alt.=127.581116m. Speed=13.428000m/h.</desc>
<speed>3.730000</speed>
</trkpt>
<trkpt lat="55.909828" lon="26.540310">
<ele>116.7</ele>
<time>2010-08-29T07:49:29Z</time>
<desc>lat.=55.909828, lon.=26.540310, Alt.=121.219788m. Speed=16.379999m/h.</desc>
<speed>4.550000</speed>
</trkpt>
<trkpt lat="55.910995" lon="26.540962">
<ele>121.8</ele>
<time>2010-08-29T07:50:05Z</time>
<desc>lat.=55.910995, lon.=26.540962, Alt.=118.965881m. Speed=17.676001m/h.</desc>
<speed>4.910000</speed>
</trkpt>
<trkpt lat="55.912136" lon="26.541283">
<ele>121.5</ele>
<time>2010-08-29T07:50:37Z</time>
<desc>lat.=55.912136, lon.=26.541283, Alt.=132.970825m. Speed=9.828000m/h.</desc>
<speed>2.730000</speed>
</trkpt>
<trkpt lat="55.914043" lon="26.541080">
<ele>125.3</ele>
<time>2010-08-29T07:51:38Z</time>
<desc>lat.=55.914043, lon.=26.541080, Alt.=122.495178m. Speed=11.628000m/h.</desc>
<speed>3.230000</speed>
</trkpt>
<trkpt lat="55.914494" lon="26.541290">
<ele>125.0</ele>
<time>2010-08-29T07:52:44Z</time>
<desc>lat.=55.914494, lon.=26.541290, Alt.=124.924866m. Speed=0.324000m/h.</desc>
<speed>0.090000</speed>
</trkpt>
<trkpt lat="55.919399" lon="26.546244">
<ele>134.1</ele>
<time>2010-08-29T07:55:49Z</time>
<desc>lat.=55.919399, lon.=26.546244, Alt.=126.118225m. Speed=12.888000m/h.</desc>
<speed>3.580000</speed>
</trkpt>
<trkpt lat="55.919811" lon="26.546280">
<ele>124.9</ele>
<time>2010-08-29T07:56:13Z</time>
<desc>lat.=55.919811, lon.=26.546280, Alt.=128.466919m. Speed=15.084000m/h.</desc>
<speed>4.190000</speed>
</trkpt>
<trkpt lat="55.920391" lon="26.546848">
<ele>118.8</ele>
<time>2010-08-29T07:56:29Z</time>
<desc>lat.=55.920391, lon.=26.546848, Alt.=137.931763m. Speed=16.704000m/h.</desc>
<speed>4.640000</speed>
</trkpt>
<trkpt lat="55.921772" lon="26.547012">
<ele>130.2</ele>
<time>2010-08-29T07:56:50Z</time>
<desc>lat.=55.921772, lon.=26.547012, Alt.=134.607544m. Speed=27.288000m/h.</desc>
<speed>7.580000</speed>
</trkpt>
<trkpt lat="55.923481" lon="26.545675">
<ele>119.5</ele>
<time>2010-08-29T07:57:39Z</time>
<desc>lat.=55.923481, lon.=26.545675, Alt.=122.473694m. Speed=14.004000m/h.</desc>
<speed>3.890000</speed>
</trkpt>
<trkpt lat="55.925571" lon="26.544750">
<ele>127.5</ele>
<time>2010-08-29T07:58:23Z</time>
<desc>lat.=55.925571, lon.=26.544750, Alt.=114.612366m. Speed=13.284000m/h.</desc>
<speed>3.690000</speed>
</trkpt>
<trkpt lat="55.936535" lon="26.545485">
<ele>120.5</ele>
<time>2010-08-29T08:04:15Z</time>
<desc>lat.=55.936535, lon.=26.545485, Alt.=123.930725m. Speed=18.288000m/h.</desc>
<speed>5.080000</speed>
</trkpt>
<trkpt lat="55.936718" lon="26.545389">
<ele>120.6</ele>
<time>2010-08-29T08:04:49Z</time>
<desc>lat.=55.936718, lon.=26.545389, Alt.=125.465881m. Speed=6.336000m/h.</desc>
<speed>1.760000</speed>
</trkpt>
<trkpt lat="55.936817" lon="26.537249">
<ele>131.8</ele>
<time>2010-08-29T08:07:33Z</time>
<desc>lat.=55.936817, lon.=26.537249, Alt.=128.548950m. Speed=6.840000m/h.</desc>
<speed>1.900000</speed>
</trkpt>
<trkpt lat="55.937035" lon="26.532093">
<ele>132.8</ele>
<time>2010-08-29T08:09:02Z</time>
<desc>lat.=55.937035, lon.=26.532093, Alt.=155.205200m. Speed=4.860000m/h.</desc>
<speed>1.350000</speed>
</trkpt>
<trkpt lat="55.933750" lon="26.530350">
<ele>119.2</ele>
<time>2010-08-29T08:10:53Z</time>
<desc>lat.=55.933750, lon.=26.530350, Alt.=121.428772m. Speed=14.796000m/h.</desc>
<speed>4.110000</speed>
</trkpt>
<trkpt lat="55.933006" lon="26.530937">
<ele>118.8</ele>
<time>2010-08-29T08:11:29Z</time>
<desc>lat.=55.933006, lon.=26.530937, Alt.=123.069397m. Speed=9.792000m/h.</desc>
<speed>2.720000</speed>
</trkpt>
<trkpt lat="55.932087" lon="26.532593">
<ele>118.8</ele>
<time>2010-08-29T08:15:23Z</time>
<desc>lat.=55.932087, lon.=26.532593, Alt.=115.588928m. Speed=9.432000m/h.</desc>
<speed>2.620000</speed>
</trkpt>
<trkpt lat="55.933125" lon="26.530787">
<ele>118.5</ele>
<time>2010-08-29T08:18:21Z</time>
<desc>lat.=55.933125, lon.=26.530787, Alt.=118.844788m. Speed=11.988000m/h.</desc>
<speed>3.330000</speed>
</trkpt>
<trkpt lat="55.933754" lon="26.530346">
<ele>119.2</ele>
<time>2010-08-29T08:18:47Z</time>
<desc>lat.=55.933754, lon.=26.530346, Alt.=120.833069m. Speed=9.108000m/h.</desc>
<speed>2.530000</speed>
</trkpt>
<trkpt lat="55.936588" lon="26.531918">
<ele>132.4</ele>
<time>2010-08-29T08:20:41Z</time>
<desc>lat.=55.936588, lon.=26.531918, Alt.=131.330200m. Speed=8.496000m/h.</desc>
<speed>2.360000</speed>
</trkpt>
<trkpt lat="55.936852" lon="26.531767">
<ele>131.8</ele>
<time>2010-08-29T08:20:50Z</time>
<desc>lat.=55.936852, lon.=26.531767, Alt.=131.927856m. Speed=14.724000m/h.</desc>
<speed>4.090000</speed>
</trkpt>
<trkpt lat="55.937115" lon="26.528425">
<ele>132.1</ele>
<time>2010-08-29T08:21:46Z</time>
<desc>lat.=55.937115, lon.=26.528425, Alt.=169.970825m. Speed=14.760000m/h.</desc>
<speed>4.100000</speed>
</trkpt>
<trkpt lat="55.937126" lon="26.522449">
<ele>125.6</ele>
<time>2010-08-29T08:22:44Z</time>
<desc>lat.=55.937126, lon.=26.522449, Alt.=144.955200m. Speed=23.652000m/h.</desc>
<speed>6.570000</speed>
</trkpt>
<trkpt lat="55.937351" lon="26.521574">
<ele>125.5</ele>
<time>2010-08-29T08:22:55Z</time>
<desc>lat.=55.937351, lon.=26.521574, Alt.=139.361450m. Speed=17.568001m/h.</desc>
<speed>4.880000</speed>
</trkpt>
<trkpt lat="55.939430" lon="26.521595">
<ele>124.8</ele>
<time>2010-08-29T08:23:40Z</time>
<desc>lat.=55.939430, lon.=26.521595, Alt.=121.624084m. Speed=13.716000m/h.</desc>
<speed>3.810000</speed>
</trkpt>
<trkpt lat="55.939983" lon="26.521393">
<ele>126.7</ele>
<time>2010-08-29T08:23:58Z</time>
<desc>lat.=55.939983, lon.=26.521393, Alt.=119.807678m. Speed=17.316000m/h.</desc>
<speed>4.810000</speed>
</trkpt>
<trkpt lat="55.941708" lon="26.521553">
<ele>128.6</ele>
<time>2010-08-29T08:24:39Z</time>
<desc>lat.=55.941708, lon.=26.521553, Alt.=122.051819m. Speed=17.208000m/h.</desc>
<speed>4.780000</speed>
</trkpt>
<trkpt lat="55.942249" lon="26.521013">
<ele>124.1</ele>
<time>2010-08-29T08:24:56Z</time>
<desc>lat.=55.942249, lon.=26.521013, Alt.=117.907288m. Speed=11.016000m/h.</desc>
<speed>3.060000</speed>
</trkpt>
<trkpt lat="55.942535" lon="26.521053">
<ele>117.6</ele>
<time>2010-08-29T08:25:05Z</time>
<desc>lat.=55.942535, lon.=26.521053, Alt.=117.713928m. Speed=6.192000m/h.</desc>
<speed>1.720000</speed>
</trkpt>
<trkpt lat="55.943619" lon="26.522388">
<ele>125.9</ele>
<time>2010-08-29T08:25:50Z</time>
<desc>lat.=55.943619, lon.=26.522388, Alt.=131.029419m. Speed=15.696000m/h.</desc>
<speed>4.360000</speed>
</trkpt>
<trkpt lat="55.944538" lon="26.524092">
<ele>123.6</ele>
<time>2010-08-29T08:26:19Z</time>
<desc>lat.=55.944538, lon.=26.524092, Alt.=133.252075m. Speed=14.040000m/h.</desc>
<speed>3.900000</speed>
</trkpt>
<trkpt lat="55.948364" lon="26.528349">
<ele>125.0</ele>
<time>2010-08-29T08:28:02Z</time>
<desc>lat.=55.948364, lon.=26.528349, Alt.=115.643616m. Speed=12.276000m/h.</desc>
<speed>3.410000</speed>
</trkpt>
<trkpt lat="55.948875" lon="26.529203">
<ele>127.2</ele>
<time>2010-08-29T08:28:15Z</time>
<desc>lat.=55.948875, lon.=26.529203, Alt.=113.575256m. Speed=18.576000m/h.</desc>
<speed>5.160000</speed>
</trkpt>
<trkpt lat="55.949532" lon="26.531061">
<ele>131.4</ele>
<time>2010-08-29T08:28:41Z</time>
<desc>lat.=55.949532, lon.=26.531061, Alt.=122.411194m. Speed=13.572000m/h.</desc>
<speed>3.770000</speed>
</trkpt>
<trkpt lat="55.948547" lon="26.533371">
<ele>131.4</ele>
<time>2010-08-29T08:29:50Z</time>
<desc>lat.=55.948547, lon.=26.533371, Alt.=133.783325m. Speed=5.148000m/h.</desc>
<speed>1.430000</speed>
</trkpt>
<trkpt lat="55.948524" lon="26.536047">
<ele>135.0</ele>
<time>2010-08-29T08:32:26Z</time>
<desc>lat.=55.948524, lon.=26.536047, Alt.=138.603638m. Speed=0.216000m/h.</desc>
<speed>0.060000</speed>
</trkpt>
<trkpt lat="55.948410" lon="26.534912">
<ele>130.1</ele>
<time>2010-08-29T08:33:08Z</time>
<desc>lat.=55.948410, lon.=26.534912, Alt.=140.670044m. Speed=6.156000m/h.</desc>
<speed>1.710000</speed>
</trkpt>
<trkpt lat="55.948776" lon="26.533155">
<ele>132.3</ele>
<time>2010-08-29T08:33:50Z</time>
<desc>lat.=55.948776, lon.=26.533155, Alt.=141.209106m. Speed=7.272000m/h.</desc>
<speed>2.020000</speed>
</trkpt>
<trkpt lat="55.949547" lon="26.531397">
<ele>130.8</ele>
<time>2010-08-29T08:34:26Z</time>
<desc>lat.=55.949547, lon.=26.531397, Alt.=134.728638m. Speed=2.880000m/h.</desc>
<speed>0.800000</speed>
</trkpt>
<trkpt lat="55.950172" lon="26.531544">
<ele>121.1</ele>
<time>2010-08-29T08:34:49Z</time>
<desc>lat.=55.950172, lon.=26.531544, Alt.=125.147522m. Speed=7.236000m/h.</desc>
<speed>2.010000</speed>
</trkpt>
<trkpt lat="55.951164" lon="26.531912">
<ele>127.1</ele>
<time>2010-08-29T08:35:12Z</time>
<desc>lat.=55.951164, lon.=26.531912, Alt.=124.196350m. Speed=8.964000m/h.</desc>
<speed>2.490000</speed>
</trkpt>
<trkpt lat="55.951820" lon="26.532608">
<ele>129.9</ele>
<time>2010-08-29T08:35:30Z</time>
<desc>lat.=55.951820, lon.=26.532608, Alt.=128.498169m. Speed=18.612000m/h.</desc>
<speed>5.170000</speed>
</trkpt>
<trkpt lat="55.953022" lon="26.534750">
<ele>132.9</ele>
<time>2010-08-29T08:36:00Z</time>
<desc>lat.=55.953022, lon.=26.534750, Alt.=152.384888m. Speed=20.808001m/h.</desc>
<speed>5.780000</speed>
</trkpt>
<trkpt lat="55.953804" lon="26.537029">
<ele>131.9</ele>
<time>2010-08-29T08:36:42Z</time>
<desc>lat.=55.953804, lon.=26.537029, Alt.=146.201294m. Speed=7.344000m/h.</desc>
<speed>2.040000</speed>
</trkpt>
<trkpt lat="55.954781" lon="26.538136">
<ele>121.4</ele>
<time>2010-08-29T08:37:14Z</time>
<desc>lat.=55.954781, lon.=26.538136, Alt.=135.412231m. Speed=6.480000m/h.</desc>
<speed>1.800000</speed>
</trkpt>
<trkpt lat="55.954975" lon="26.542456">
<ele>127.6</ele>
<time>2010-08-29T08:38:18Z</time>
<desc>lat.=55.954975, lon.=26.542456, Alt.=181.623169m. Speed=15.012000m/h.</desc>
<speed>4.170000</speed>
</trkpt>
<trkpt lat="55.954800" lon="26.544790">
<ele>130.0</ele>
<time>2010-08-29T08:38:56Z</time>
<desc>lat.=55.954800, lon.=26.544790, Alt.=202.115356m. Speed=10.152000m/h.</desc>
<speed>2.820000</speed>
</trkpt>
<trkpt lat="55.954865" lon="26.548145">
<ele>121.6</ele>
<time>2010-08-29T08:39:39Z</time>
<desc>lat.=55.954865, lon.=26.548145, Alt.=233.466919m. Speed=14.868000m/h.</desc>
<speed>4.130000</speed>
</trkpt>
<trkpt lat="55.954620" lon="26.551542">
<ele>125.0</ele>
<time>2010-08-29T08:40:25Z</time>
<desc>lat.=55.954620, lon.=26.551542, Alt.=185.920044m. Speed=16.056000m/h.</desc>
<speed>4.460000</speed>
</trkpt>
<trkpt lat="55.954617" lon="26.553791">
<ele>124.7</ele>
<time>2010-08-29T08:40:50Z</time>
<desc>lat.=55.954617, lon.=26.553791, Alt.=201.732544m. Speed=13.824000m/h.</desc>
<speed>3.840000</speed>
</trkpt>
<trkpt lat="55.954987" lon="26.554600">
<ele>126.1</ele>
<time>2010-08-29T08:41:16Z</time>
<desc>lat.=55.954987, lon.=26.554600, Alt.=198.857544m. Speed=7.740000m/h.</desc>
<speed>2.150000</speed>
</trkpt>
<trkpt lat="55.956886" lon="26.554522">
<ele>113.9</ele>
<time>2010-08-29T08:42:14Z</time>
<desc>lat.=55.956886, lon.=26.554522, Alt.=110.172913m. Speed=7.992000m/h.</desc>
<speed>2.220000</speed>
</trkpt>
<trkpt lat="55.958271" lon="26.554905">
<ele>113.3</ele>
<time>2010-08-29T08:45:39Z</time>
<desc>lat.=55.958271, lon.=26.554905, Alt.=140.966919m. Speed=9.648000m/h.</desc>
<speed>2.680000</speed>
</trkpt>
<trkpt lat="55.959793" lon="26.554798">
<ele>111.2</ele>
<time>2010-08-29T08:47:40Z</time>
<desc>lat.=55.959793, lon.=26.554798, Alt.=119.827209m. Speed=0.900000m/h.</desc>
<speed>0.250000</speed>
</trkpt>
<trkpt lat="55.960014" lon="26.552618">
<ele>129.6</ele>
<time>2010-08-29T08:48:35Z</time>
<desc>lat.=55.960014, lon.=26.552618, Alt.=138.048950m. Speed=5.832000m/h.</desc>
<speed>1.620000</speed>
</trkpt>
<trkpt lat="55.960835" lon="26.549730">
<ele>129.3</ele>
<time>2010-08-29T08:49:40Z</time>
<desc>lat.=55.960835, lon.=26.549730, Alt.=169.380981m. Speed=5.364000m/h.</desc>
<speed>1.490000</speed>
</trkpt>
<trkpt lat="55.960762" lon="26.546789">
<ele>127.8</ele>
<time>2010-08-29T08:51:03Z</time>
<desc>lat.=55.960762, lon.=26.546789, Alt.=144.568481m. Speed=8.424000m/h.</desc>
<speed>2.340000</speed>
</trkpt>
<trkpt lat="55.961205" lon="26.544979">
<ele>131.4</ele>
<time>2010-08-29T08:51:46Z</time>
<desc>lat.=55.961205, lon.=26.544979, Alt.=145.888794m. Speed=6.084000m/h.</desc>
<speed>1.690000</speed>
</trkpt>
<trkpt lat="55.961250" lon="26.543875">
<ele>131.9</ele>
<time>2010-08-29T08:52:17Z</time>
<desc>lat.=55.961250, lon.=26.543875, Alt.=142.744263m. Speed=7.164000m/h.</desc>
<speed>1.990000</speed>
</trkpt>
<trkpt lat="55.962311" lon="26.543770">
<ele>127.4</ele>
<time>2010-08-29T08:52:59Z</time>
<desc>lat.=55.962311, lon.=26.543770, Alt.=147.779419m. Speed=4.500000m/h.</desc>
<speed>1.250000</speed>
</trkpt>
<trkpt lat="55.964081" lon="26.542305">
<ele>125.9</ele>
<time>2010-08-29T08:54:10Z</time>
<desc>lat.=55.964081, lon.=26.542305, Alt.=135.322388m. Speed=7.272000m/h.</desc>
<speed>2.020000</speed>
</trkpt>
<trkpt lat="55.966915" lon="26.541702">
<ele>118.0</ele>
<time>2010-08-29T08:55:32Z</time>
<desc>lat.=55.966915, lon.=26.541702, Alt.=121.430725m. Speed=5.868000m/h.</desc>
<speed>1.630000</speed>
</trkpt>
<trkpt lat="55.967201" lon="26.545382">
<ele>122.5</ele>
<time>2010-08-29T08:57:23Z</time>
<desc>lat.=55.967201, lon.=26.545382, Alt.=91.333069m. Speed=3.564000m/h.</desc>
<speed>0.990000</speed>
</trkpt>
<trkpt lat="55.966908" lon="26.547346">
<ele>120.9</ele>
<time>2010-08-29T08:58:05Z</time>
<desc>lat.=55.966908, lon.=26.547346, Alt.=89.706116m. Speed=4.284000m/h.</desc>
<speed>1.190000</speed>
</trkpt>
<trkpt lat="55.967346" lon="26.548954">
<ele>126.6</ele>
<time>2010-08-29T08:58:53Z</time>
<desc>lat.=55.967346, lon.=26.548954, Alt.=88.555725m. Speed=4.932000m/h.</desc>
<speed>1.370000</speed>
</trkpt>
<trkpt lat="55.968201" lon="26.549604">
<ele>122.6</ele>
<time>2010-08-29T09:00:20Z</time>
<desc>lat.=55.968201, lon.=26.549604, Alt.=98.407288m. Speed=3.888000m/h.</desc>
<speed>1.080000</speed>
</trkpt>
<trkpt lat="55.969002" lon="26.549318">
<ele>114.3</ele>
<time>2010-08-29T09:01:12Z</time>
<desc>lat.=55.969002, lon.=26.549318, Alt.=110.688538m. Speed=4.608000m/h.</desc>
<speed>1.280000</speed>
</trkpt>
<trkpt lat="55.971367" lon="26.550283">
<ele>108.8</ele>
<time>2010-08-29T09:02:48Z</time>
<desc>lat.=55.971367, lon.=26.550283, Alt.=106.766663m. Speed=10.296000m/h.</desc>
<speed>2.860000</speed>
</trkpt>
<trkpt lat="55.972218" lon="26.551428">
<ele>107.8</ele>
<time>2010-08-29T09:04:45Z</time>
<desc>lat.=55.972218, lon.=26.551428, Alt.=101.356506m. Speed=2.304000m/h.</desc>
<speed>0.640000</speed>
</trkpt>
<trkpt lat="55.972122" lon="26.551903">
<ele>109.9</ele>
<time>2010-08-29T09:05:20Z</time>
<desc>lat.=55.972122, lon.=26.551903, Alt.=98.645569m. Speed=4.716000m/h.</desc>
<speed>1.310000</speed>
</trkpt>
<trkpt lat="55.972893" lon="26.553217">
<ele>104.3</ele>
<time>2010-08-29T09:06:40Z</time>
<desc>lat.=55.972893, lon.=26.553217, Alt.=95.536194m. Speed=10.404000m/h.</desc>
<speed>2.890000</speed>
</trkpt>
<trkpt lat="55.973320" lon="26.553263">
<ele>102.3</ele>
<time>2010-08-29T09:06:52Z</time>
<desc>lat.=55.973320, lon.=26.553263, Alt.=92.499084m. Speed=12.132000m/h.</desc>
<speed>3.370000</speed>
</trkpt>
<trkpt lat="55.976929" lon="26.550127">
<ele>109.0</ele>
<time>2010-08-29T09:10:54Z</time>
<desc>lat.=55.976929, lon.=26.550127, Alt.=108.393616m. Speed=5.328000m/h.</desc>
<speed>1.480000</speed>
</trkpt>
<trkpt lat="55.978653" lon="26.549946">
<ele>106.3</ele>
<time>2010-08-29T09:12:11Z</time>
<desc>lat.=55.978653, lon.=26.549946, Alt.=95.501038m. Speed=19.440001m/h.</desc>
<speed>5.400000</speed>
</trkpt>
<trkpt lat="55.979305" lon="26.550495">
<ele>100.6</ele>
<time>2010-08-29T09:12:26Z</time>
<desc>lat.=55.979305, lon.=26.550495, Alt.=93.815491m. Speed=15.120000m/h.</desc>
<speed>4.200000</speed>
</trkpt>
<trkpt lat="55.979538" lon="26.551022">
<ele>98.3</ele>
<time>2010-08-29T09:12:36Z</time>
<desc>lat.=55.979538, lon.=26.551022, Alt.=96.120178m. Speed=15.444000m/h.</desc>
<speed>4.290000</speed>
</trkpt>
<trkpt lat="55.979893" lon="26.553417">
<ele>103.9</ele>
<time>2010-08-29T09:13:50Z</time>
<desc>lat.=55.979893, lon.=26.553417, Alt.=108.229553m. Speed=1.584000m/h.</desc>
<speed>0.440000</speed>
</trkpt>
<trkpt lat="55.979332" lon="26.556362">
<ele>108.5</ele>
<time>2010-08-29T09:16:04Z</time>
<desc>lat.=55.979332, lon.=26.556362, Alt.=100.169006m. Speed=7.920000m/h.</desc>
<speed>2.200000</speed>
</trkpt>
<trkpt lat="55.978508" lon="26.558670">
<ele>111.9</ele>
<time>2010-08-29T09:17:34Z</time>
<desc>lat.=55.978508, lon.=26.558670, Alt.=105.161194m. Speed=10.728000m/h.</desc>
<speed>2.980000</speed>
</trkpt>
<trkpt lat="55.978317" lon="26.559814">
<ele>108.1</ele>
<time>2010-08-29T09:18:02Z</time>
<desc>lat.=55.978317, lon.=26.559814, Alt.=106.372131m. Speed=3.888000m/h.</desc>
<speed>1.080000</speed>
</trkpt>
<trkpt lat="55.979347" lon="26.559469">
<ele>128.4</ele>
<time>2010-08-29T09:18:59Z</time>
<desc>lat.=55.979347, lon.=26.559469, Alt.=130.088013m. Speed=5.544000m/h.</desc>
<speed>1.540000</speed>
</trkpt>
<trkpt lat="55.980389" lon="26.559818">
<ele>121.6</ele>
<time>2010-08-29T09:19:36Z</time>
<desc>lat.=55.980389, lon.=26.559818, Alt.=136.287231m. Speed=3.636000m/h.</desc>
<speed>1.010000</speed>
</trkpt>
<trkpt lat="55.981853" lon="26.559605">
<ele>127.4</ele>
<time>2010-08-29T09:20:52Z</time>
<desc>lat.=55.981853, lon.=26.559605, Alt.=117.348694m. Speed=7.452000m/h.</desc>
<speed>2.070000</speed>
</trkpt>
<trkpt lat="55.982567" lon="26.560263">
<ele>123.4</ele>
<time>2010-08-29T09:21:18Z</time>
<desc>lat.=55.982567, lon.=26.560263, Alt.=102.372131m. Speed=3.528000m/h.</desc>
<speed>0.980000</speed>
</trkpt>
<trkpt lat="55.983566" lon="26.560612">
<ele>123.6</ele>
<time>2010-08-29T09:21:58Z</time>
<desc>lat.=55.983566, lon.=26.560612, Alt.=99.467834m. Speed=5.868000m/h.</desc>
<speed>1.630000</speed>
</trkpt>
<trkpt lat="55.985306" lon="26.560486">
<ele>125.7</ele>
<time>2010-08-29T09:22:59Z</time>
<desc>lat.=55.985306, lon.=26.560486, Alt.=107.040100m. Speed=7.704000m/h.</desc>
<speed>2.140000</speed>
</trkpt>
<trkpt lat="55.986588" lon="26.560019">
<ele>104.0</ele>
<time>2010-08-29T09:23:45Z</time>
<desc>lat.=55.986588, lon.=26.560019, Alt.=98.579163m. Speed=6.552000m/h.</desc>
<speed>1.820000</speed>
</trkpt>
<trkpt lat="55.987049" lon="26.560459">
<ele>111.7</ele>
<time>2010-08-29T09:24:08Z</time>
<desc>lat.=55.987049, lon.=26.560459, Alt.=98.536194m. Speed=7.092000m/h.</desc>
<speed>1.970000</speed>
</trkpt>
<trkpt lat="55.988064" lon="26.560843">
<ele>104.0</ele>
<time>2010-08-29T09:24:48Z</time>
<desc>lat.=55.988064, lon.=26.560843, Alt.=84.690491m. Speed=12.492000m/h.</desc>
<speed>3.470000</speed>
</trkpt>
<trkpt lat="55.989716" lon="26.561064">
<ele>103.3</ele>
<time>2010-08-29T09:28:32Z</time>
<desc>lat.=55.989716, lon.=26.561064, Alt.=91.833069m. Speed=7.308000m/h.</desc>
<speed>2.030000</speed>
</trkpt>
<trkpt lat="55.990353" lon="26.562368">
<ele>103.5</ele>
<time>2010-08-29T09:29:16Z</time>
<desc>lat.=55.990353, lon.=26.562368, Alt.=94.637756m. Speed=11.268000m/h.</desc>
<speed>3.130000</speed>
</trkpt>
<trkpt lat="55.991009" lon="26.564423">
<ele>104.2</ele>
<time>2010-08-29T09:30:04Z</time>
<desc>lat.=55.991009, lon.=26.564423, Alt.=96.358459m. Speed=7.704000m/h.</desc>
<speed>2.140000</speed>
</trkpt>
<trkpt lat="55.991379" lon="26.564678">
<ele>101.5</ele>
<time>2010-08-29T09:30:20Z</time>
<desc>lat.=55.991379, lon.=26.564678, Alt.=94.756897m. Speed=6.156000m/h.</desc>
<speed>1.710000</speed>
</trkpt>
<trkpt lat="55.992191" lon="26.564684">
<ele>102.4</ele>
<time>2010-08-29T09:30:54Z</time>
<desc>lat.=55.992191, lon.=26.564684, Alt.=107.022522m. Speed=9.684000m/h.</desc>
<speed>2.690000</speed>
</trkpt>
<trkpt lat="55.992393" lon="26.565205">
<ele>100.3</ele>
<time>2010-08-29T09:31:05Z</time>
<desc>lat.=55.992393, lon.=26.565205, Alt.=101.323303m. Speed=9.144000m/h.</desc>
<speed>2.540000</speed>
</trkpt>
<trkpt lat="55.992596" lon="26.567055">
<ele>102.2</ele>
<time>2010-08-29T09:31:47Z</time>
<desc>lat.=55.992596, lon.=26.567055, Alt.=87.985413m. Speed=8.604000m/h.</desc>
<speed>2.390000</speed>
</trkpt>
<trkpt lat="55.992218" lon="26.570866">
<ele>105.8</ele>
<time>2010-08-29T09:34:25Z</time>
<desc>lat.=55.992218, lon.=26.570866, Alt.=99.540100m. Speed=10.980000m/h.</desc>
<speed>3.050000</speed>
</trkpt>
<trkpt lat="55.992325" lon="26.572104">
<ele>102.8</ele>
<time>2010-08-29T09:34:58Z</time>
<desc>lat.=55.992325, lon.=26.572104, Alt.=95.245178m. Speed=0.432000m/h.</desc>
<speed>0.120000</speed>
</trkpt>
<trkpt lat="55.993370" lon="26.575153">
<ele>115.7</ele>
<time>2010-08-29T09:36:46Z</time>
<desc>lat.=55.993370, lon.=26.575153, Alt.=95.530334m. Speed=6.192000m/h.</desc>
<speed>1.720000</speed>
</trkpt>
<trkpt lat="55.993530" lon="26.576738">
<ele>129.1</ele>
<time>2010-08-29T09:37:14Z</time>
<desc>lat.=55.993530, lon.=26.576738, Alt.=99.692444m. Speed=8.820000m/h.</desc>
<speed>2.450000</speed>
</trkpt>
<trkpt lat="55.994209" lon="26.578571">
<ele>117.9</ele>
<time>2010-08-29T09:37:48Z</time>
<desc>lat.=55.994209, lon.=26.578571, Alt.=108.657288m. Speed=11.556000m/h.</desc>
<speed>3.210000</speed>
</trkpt>
<trkpt lat="55.994530" lon="26.580324">
<ele>108.8</ele>
<time>2010-08-29T09:38:18Z</time>
<desc>lat.=55.994530, lon.=26.580324, Alt.=98.958069m. Speed=6.876000m/h.</desc>
<speed>1.910000</speed>
</trkpt>
<trkpt lat="55.994656" lon="26.581800">
<ele>106.0</ele>
<time>2010-08-29T09:39:08Z</time>
<desc>lat.=55.994656, lon.=26.581800, Alt.=102.422913m. Speed=10.800000m/h.</desc>
<speed>3.000000</speed>
</trkpt>
<trkpt lat="55.994499" lon="26.583025">
<ele>111.2</ele>
<time>2010-08-29T09:39:36Z</time>
<desc>lat.=55.994499, lon.=26.583025, Alt.=99.610413m. Speed=10.332000m/h.</desc>
<speed>2.870000</speed>
</trkpt>
<trkpt lat="55.994019" lon="26.584803">
<ele>111.7</ele>
<time>2010-08-29T09:40:10Z</time>
<desc>lat.=55.994019, lon.=26.584803, Alt.=101.669006m. Speed=6.624000m/h.</desc>
<speed>1.840000</speed>
</trkpt>
<trkpt lat="55.993484" lon="26.585968">
<ele>109.6</ele>
<time>2010-08-29T09:40:36Z</time>
<desc>lat.=55.993484, lon.=26.585968, Alt.=110.528381m. Speed=11.700000m/h.</desc>
<speed>3.250000</speed>
</trkpt>
<trkpt lat="55.993275" lon="26.587332">
<ele>106.4</ele>
<time>2010-08-29T09:40:57Z</time>
<desc>lat.=55.993275, lon.=26.587332, Alt.=93.971741m. Speed=10.584000m/h.</desc>
<speed>2.940000</speed>
</trkpt>
<trkpt lat="55.992294" lon="26.589186">
<ele>107.8</ele>
<time>2010-08-29T09:41:56Z</time>
<desc>lat.=55.992294, lon.=26.589186, Alt.=100.442444m. Speed=9.324000m/h.</desc>
<speed>2.590000</speed>
</trkpt>
<trkpt lat="55.992649" lon="26.591307">
<ele>107.0</ele>
<time>2010-08-29T09:43:27Z</time>
<desc>lat.=55.992649, lon.=26.591307, Alt.=102.799866m. Speed=0.324000m/h.</desc>
<speed>0.090000</speed>
</trkpt>
<trkpt lat="55.995033" lon="26.589746">
<ele>113.1</ele>
<time>2010-08-29T09:45:36Z</time>
<desc>lat.=55.995033, lon.=26.589746, Alt.=102.749084m. Speed=10.692000m/h.</desc>
<speed>2.970000</speed>
</trkpt>
<trkpt lat="55.995766" lon="26.588728">
<ele>111.5</ele>
<time>2010-08-29T09:46:13Z</time>
<desc>lat.=55.995766, lon.=26.588728, Alt.=106.147522m. Speed=5.148000m/h.</desc>
<speed>1.430000</speed>
</trkpt>
<trkpt lat="55.996445" lon="26.589043">
<ele>121.8</ele>
<time>2010-08-29T09:47:10Z</time>
<desc>lat.=55.996445, lon.=26.589043, Alt.=109.981506m. Speed=0.864000m/h.</desc>
<speed>0.240000</speed>
</trkpt>
<trkpt lat="55.996674" lon="26.589481">
<ele>118.1</ele>
<time>2010-08-29T09:48:21Z</time>
<desc>lat.=55.996674, lon.=26.589481, Alt.=114.678772m. Speed=0.000000m/h.</desc>
<speed>0.000000</speed>
</trkpt>
<trkpt lat="55.997654" lon="26.588655">
<ele>121.6</ele>
<time>2010-08-29T09:50:45Z</time>
<desc>lat.=55.997654, lon.=26.588655, Alt.=117.501038m. Speed=5.940000m/h.</desc>
<speed>1.650000</speed>
</trkpt>
<trkpt lat="55.998535" lon="26.586294">
<ele>113.7</ele>
<time>2010-08-29T09:51:47Z</time>
<desc>lat.=55.998535, lon.=26.586294, Alt.=106.700256m. Speed=4.608000m/h.</desc>
<speed>1.280000</speed>
</trkpt>
<trkpt lat="56.000999" lon="26.582951">
<ele>114.7</ele>
<time>2010-08-29T09:54:10Z</time>
<desc>lat.=56.000999, lon.=26.582951, Alt.=116.854553m. Speed=8.172000m/h.</desc>
<speed>2.270000</speed>
</trkpt>
<trkpt lat="56.001335" lon="26.581705">
<ele>114.7</ele>
<time>2010-08-29T09:54:57Z</time>
<desc>lat.=56.001335, lon.=26.581705, Alt.=119.659241m. Speed=1.656000m/h.</desc>
<speed>0.460000</speed>
</trkpt>
<trkpt lat="56.001862" lon="26.581079">
<ele>127.9</ele>
<time>2010-08-29T09:55:36Z</time>
<desc>lat.=56.001862, lon.=26.581079, Alt.=121.917053m. Speed=4.896000m/h.</desc>
<speed>1.360000</speed>
</trkpt>
<trkpt lat="56.002129" lon="26.580320">
<ele>125.0</ele>
<time>2010-08-29T09:56:03Z</time>
<desc>lat.=56.002129, lon.=26.580320, Alt.=121.167053m. Speed=2.160000m/h.</desc>
<speed>0.600000</speed>
</trkpt>
<trkpt lat="56.002468" lon="26.576944">
<ele>117.4</ele>
<time>2010-08-29T09:57:36Z</time>
<desc>lat.=56.002468, lon.=26.576944, Alt.=119.155334m. Speed=7.236000m/h.</desc>
<speed>2.010000</speed>
</trkpt>
<trkpt lat="56.002872" lon="26.574673">
<ele>113.6</ele>
<time>2010-08-29T09:58:11Z</time>
<desc>lat.=56.002872, lon.=26.574673, Alt.=115.124084m. Speed=20.771999m/h.</desc>
<speed>5.770000</speed>
</trkpt>
<trkpt lat="56.003044" lon="26.571177">
<ele>107.7</ele>
<time>2010-08-29T10:00:11Z</time>
<desc>lat.=56.003044, lon.=26.571177, Alt.=106.315491m. Speed=2.124000m/h.</desc>
<speed>0.590000</speed>
</trkpt>
<trkpt lat="56.003433" lon="26.569502">
<ele>111.6</ele>
<time>2010-08-29T10:00:52Z</time>
<desc>lat.=56.003433, lon.=26.569502, Alt.=124.897522m. Speed=12.384000m/h.</desc>
<speed>3.440000</speed>
</trkpt>
<trkpt lat="56.004044" lon="26.568123">
<ele>104.8</ele>
<time>2010-08-29T10:01:34Z</time>
<desc>lat.=56.004044, lon.=26.568123, Alt.=153.005981m. Speed=1.188000m/h.</desc>
<speed>0.330000</speed>
</trkpt>
<trkpt lat="56.004795" lon="26.567610">
<ele>119.7</ele>
<time>2010-08-29T10:02:47Z</time>
<desc>lat.=56.004795, lon.=26.567610, Alt.=140.115356m. Speed=1.224000m/h.</desc>
<speed>0.340000</speed>
</trkpt>
<trkpt lat="56.004955" lon="26.567266">
<ele>124.0</ele>
<time>2010-08-29T10:03:07Z</time>
<desc>lat.=56.004955, lon.=26.567266, Alt.=132.220825m. Speed=1.764000m/h.</desc>
<speed>0.490000</speed>
</trkpt>
<trkpt lat="56.004688" lon="26.565880">
<ele>121.2</ele>
<time>2010-08-29T10:03:50Z</time>
<desc>lat.=56.004688, lon.=26.565880, Alt.=134.060669m. Speed=4.140000m/h.</desc>
<speed>1.150000</speed>
</trkpt>
<trkpt lat="56.005142" lon="26.564543">
<ele>125.4</ele>
<time>2010-08-29T10:04:33Z</time>
<desc>lat.=56.005142, lon.=26.564543, Alt.=138.400513m. Speed=2.232000m/h.</desc>
<speed>0.620000</speed>
</trkpt>
<trkpt lat="56.006687" lon="26.563187">
<ele>129.3</ele>
<time>2010-08-29T10:05:41Z</time>
<desc>lat.=56.006687, lon.=26.563187, Alt.=120.684631m. Speed=3.204000m/h.</desc>
<speed>0.890000</speed>
</trkpt>
<trkpt lat="56.007107" lon="26.562500">
<ele>113.1</ele>
<time>2010-08-29T10:06:12Z</time>
<desc>lat.=56.007107, lon.=26.562500, Alt.=112.719788m. Speed=1.872000m/h.</desc>
<speed>0.520000</speed>
</trkpt>
<trkpt lat="56.007813" lon="26.559387">
<ele>120.6</ele>
<time>2010-08-29T10:07:28Z</time>
<desc>lat.=56.007813, lon.=26.559387, Alt.=112.790100m. Speed=3.312000m/h.</desc>
<speed>0.920000</speed>
</trkpt>
<trkpt lat="56.009258" lon="26.558233">
<ele>131.3</ele>
<time>2010-08-29T10:08:31Z</time>
<desc>lat.=56.009258, lon.=26.558233, Alt.=81.735413m. Speed=1.620000m/h.</desc>
<speed>0.450000</speed>
</trkpt>
<trkpt lat="56.009750" lon="26.558151">
<ele>130.8</ele>
<time>2010-08-29T10:09:00Z</time>
<desc>lat.=56.009750, lon.=26.558151, Alt.=71.235413m. Speed=2.304000m/h.</desc>
<speed>0.640000</speed>
</trkpt>
<trkpt lat="56.010719" lon="26.558552">
<ele>134.6</ele>
<time>2010-08-29T10:09:47Z</time>
<desc>lat.=56.010719, lon.=26.558552, Alt.=34.254425m. Speed=1.908000m/h.</desc>
<speed>0.530000</speed>
</trkpt>
<trkpt lat="56.011295" lon="26.558170">
<ele>124.9</ele>
<time>2010-08-29T10:10:08Z</time>
<desc>lat.=56.011295, lon.=26.558170, Alt.=15.045296m. Speed=3.816000m/h.</desc>
<speed>1.060000</speed>
</trkpt>
<trkpt lat="56.012016" lon="26.558338">
<ele>119.1</ele>
<time>2010-08-29T10:10:40Z</time>
<desc>lat.=56.012016, lon.=26.558338, Alt.=-10.402962m. Speed=3.888000m/h.</desc>
<speed>1.080000</speed>
</trkpt>
<trkpt lat="56.013115" lon="26.557823">
<ele>130.7</ele>
<time>2010-08-29T10:11:15Z</time>
<desc>lat.=56.013115, lon.=26.557823, Alt.=-65.395569m. Speed=7.596000m/h.</desc>
<speed>2.110000</speed>
</trkpt>
<trkpt lat="56.013664" lon="26.557085">
<ele>132.3</ele>
<time>2010-08-29T10:11:38Z</time>
<desc>lat.=56.013664, lon.=26.557085, Alt.=-73.198303m. Speed=6.696000m/h.</desc>
<speed>1.860000</speed>
</trkpt>
<trkpt lat="56.015217" lon="26.556028">
<ele>116.4</ele>
<time>2010-08-29T10:12:02Z</time>
<desc>lat.=56.015217, lon.=26.556028, Alt.=-50.192902m. Speed=4.716000m/h.</desc>
<speed>1.310000</speed>
</trkpt>
<trkpt lat="56.016678" lon="26.554363">
<ele>134.1</ele>
<time>2010-08-29T10:13:22Z</time>
<desc>lat.=56.016678, lon.=26.554363, Alt.=-56.699738m. Speed=2.016000m/h.</desc>
<speed>0.560000</speed>
</trkpt>
<trkpt lat="56.018112" lon="26.553425">
<ele>125.1</ele>
<time>2010-08-29T10:14:04Z</time>
<desc>lat.=56.018112, lon.=26.553425, Alt.=-51.559113m. Speed=10.260000m/h.</desc>
<speed>2.850000</speed>
</trkpt>
<trkpt lat="56.018734" lon="26.552708">
<ele>113.4</ele>
<time>2010-08-29T10:14:26Z</time>
<desc>lat.=56.018734, lon.=26.552708, Alt.=-46.992706m. Speed=3.924000m/h.</desc>
<speed>1.090000</speed>
</trkpt>
<trkpt lat="56.019131" lon="26.551252">
<ele>114.5</ele>
<time>2010-08-29T10:15:09Z</time>
<desc>lat.=56.019131, lon.=26.551252, Alt.=-41.161652m. Speed=3.888000m/h.</desc>
<speed>1.080000</speed>
</trkpt>
<trkpt lat="56.019100" lon="26.550663">
<ele>116.5</ele>
<time>2010-08-29T10:15:16Z</time>
<desc>lat.=56.019100, lon.=26.550663, Alt.=-39.466339m. Speed=4.644000m/h.</desc>
<speed>1.290000</speed>
</trkpt>
<trkpt lat="56.019630" lon="26.549267">
<ele>110.9</ele>
<time>2010-08-29T10:16:21Z</time>
<desc>lat.=56.019630, lon.=26.549267, Alt.=-31.719498m. Speed=0.396000m/h.</desc>
<speed>0.110000</speed>
</trkpt>
<trkpt lat="56.020798" lon="26.548744">
<ele>110.9</ele>
<time>2010-08-29T10:17:20Z</time>
<desc>lat.=56.020798, lon.=26.548744, Alt.=-29.336685m. Speed=0.180000m/h.</desc>
<speed>0.050000</speed>
</trkpt>
<trkpt lat="56.020786" lon="26.549057">
<ele>110.1</ele>
<time>2010-08-29T10:18:45Z</time>
<desc>lat.=56.020786, lon.=26.549057, Alt.=-24.465591m. Speed=3.276000m/h.</desc>
<speed>0.910000</speed>
</trkpt>
<trkpt lat="56.020996" lon="26.549109">
<ele>105.9</ele>
<time>2010-08-29T10:19:00Z</time>
<desc>lat.=56.020996, lon.=26.549109, Alt.=-18.196548m. Speed=2.160000m/h.</desc>
<speed>0.600000</speed>
</trkpt>
<trkpt lat="56.020889" lon="26.548532">
<ele>109.3</ele>
<time>2010-08-29T10:19:24Z</time>
<desc>lat.=56.020889, lon.=26.548532, Alt.=-6.395451m. Speed=3.996000m/h.</desc>
<speed>1.110000</speed>
</trkpt>
<trkpt lat="56.021191" lon="26.546698">
<ele>111.1</ele>
<time>2010-08-29T10:20:10Z</time>
<desc>lat.=56.021191, lon.=26.546698, Alt.=47.962433m. Speed=3.564000m/h.</desc>
<speed>0.990000</speed>
</trkpt>
<trkpt lat="56.021202" lon="26.544382">
<ele>114.2</ele>
<time>2010-08-29T10:21:06Z</time>
<desc>lat.=56.021202, lon.=26.544382, Alt.=44.948761m. Speed=5.112000m/h.</desc>
<speed>1.420000</speed>
</trkpt>
<trkpt lat="56.021832" lon="26.542566">
<ele>119.8</ele>
<time>2010-08-29T10:21:58Z</time>
<desc>lat.=56.021832, lon.=26.542566, Alt.=26.430435m. Speed=4.644000m/h.</desc>
<speed>1.290000</speed>
</trkpt>
<trkpt lat="56.022133" lon="26.540287">
<ele>126.0</ele>
<time>2010-08-29T10:22:29Z</time>
<desc>lat.=56.022133, lon.=26.540287, Alt.=17.955338m. Speed=9.684000m/h.</desc>
<speed>2.690000</speed>
</trkpt>
<trkpt lat="56.022736" lon="26.539202">
<ele>121.6</ele>
<time>2010-08-29T10:23:02Z</time>
<desc>lat.=56.022736, lon.=26.539202, Alt.=20.319595m. Speed=1.872000m/h.</desc>
<speed>0.520000</speed>
</trkpt>
<trkpt lat="56.022667" lon="26.537275">
<ele>109.6</ele>
<time>2010-08-29T10:24:14Z</time>
<desc>lat.=56.022667, lon.=26.537275, Alt.=35.081573m. Speed=11.340000m/h.</desc>
<speed>3.150000</speed>
</trkpt>
<trkpt lat="56.022297" lon="26.535070">
<ele>113.7</ele>
<time>2010-08-29T10:24:34Z</time>
<desc>lat.=56.022297, lon.=26.535070, Alt.=76.829163m. Speed=20.232000m/h.</desc>
<speed>5.620000</speed>
</trkpt>
<trkpt lat="56.021721" lon="26.533356">
<ele>113.7</ele>
<time>2010-08-29T10:25:01Z</time>
<desc>lat.=56.021721, lon.=26.533356, Alt.=127.663147m. Speed=10.404000m/h.</desc>
<speed>2.890000</speed>
</trkpt>
<trkpt lat="56.021278" lon="26.532671">
<ele>116.4</ele>
<time>2010-08-29T10:25:23Z</time>
<desc>lat.=56.021278, lon.=26.532671, Alt.=149.509888m. Speed=8.712000m/h.</desc>
<speed>2.420000</speed>
</trkpt>
<trkpt lat="56.020615" lon="26.532248">
<ele>115.4</ele>
<time>2010-08-29T10:25:38Z</time>
<desc>lat.=56.020615, lon.=26.532248, Alt.=159.580200m. Speed=12.636000m/h.</desc>
<speed>3.510000</speed>
</trkpt>
<trkpt lat="56.020256" lon="26.531437">
<ele>114.5</ele>
<time>2010-08-29T10:25:57Z</time>
<desc>lat.=56.020256, lon.=26.531437, Alt.=164.884888m. Speed=4.680000m/h.</desc>
<speed>1.300000</speed>
</trkpt>
<trkpt lat="56.019753" lon="26.527834">
<ele>109.6</ele>
<time>2010-08-29T10:26:52Z</time>
<desc>lat.=56.019753, lon.=26.527834, Alt.=114.852600m. Speed=11.340000m/h.</desc>
<speed>3.150000</speed>
</trkpt>
<trkpt lat="56.020390" lon="26.528343">
<ele>111.2</ele>
<time>2010-08-29T10:27:21Z</time>
<desc>lat.=56.020390, lon.=26.528343, Alt.=109.006897m. Speed=8.424000m/h.</desc>
<speed>2.340000</speed>
</trkpt>
<trkpt lat="56.020992" lon="26.528355">
<ele>112.7</ele>
<time>2010-08-29T10:27:42Z</time>
<desc>lat.=56.020992, lon.=26.528355, Alt.=109.170959m. Speed=15.984000m/h.</desc>
<speed>4.440000</speed>
</trkpt>
<trkpt lat="56.022633" lon="26.527613">
<ele>114.4</ele>
<time>2010-08-29T10:28:29Z</time>
<desc>lat.=56.022633, lon.=26.527613, Alt.=114.774475m. Speed=16.344000m/h.</desc>
<speed>4.540000</speed>
</trkpt>
<trkpt lat="56.024063" lon="26.527746">
<ele>108.7</ele>
<time>2010-08-29T10:29:02Z</time>
<desc>lat.=56.024063, lon.=26.527746, Alt.=107.667053m. Speed=21.708000m/h.</desc>
<speed>6.030000</speed>
</trkpt>
<trkpt lat="56.025074" lon="26.529146">
<ele>110.1</ele>
<time>2010-08-29T10:29:37Z</time>
<desc>lat.=56.025074, lon.=26.529146, Alt.=104.120178m. Speed=2.880000m/h.</desc>
<speed>0.800000</speed>
</trkpt>
<trkpt lat="56.025906" lon="26.531338">
<ele>109.0</ele>
<time>2010-08-29T10:31:11Z</time>
<desc>lat.=56.025906, lon.=26.531338, Alt.=97.045959m. Speed=8.820000m/h.</desc>
<speed>2.450000</speed>
</trkpt>
<trkpt lat="56.025436" lon="26.529808">
<ele>110.1</ele>
<time>2010-08-29T10:32:36Z</time>
<desc>lat.=56.025436, lon.=26.529808, Alt.=107.038147m. Speed=12.780000m/h.</desc>
<speed>3.550000</speed>
</trkpt>
<trkpt lat="56.024075" lon="26.527714">
<ele>108.7</ele>
<time>2010-08-29T10:33:26Z</time>
<desc>lat.=56.024075, lon.=26.527714, Alt.=100.170959m. Speed=12.060000m/h.</desc>
<speed>3.350000</speed>
</trkpt>
<trkpt lat="56.022797" lon="26.527624">
<ele>114.4</ele>
<time>2010-08-29T10:34:09Z</time>
<desc>lat.=56.022797, lon.=26.527624, Alt.=106.719788m. Speed=16.308001m/h.</desc>
<speed>4.530000</speed>
</trkpt>
<trkpt lat="56.020966" lon="26.528349">
<ele>112.6</ele>
<time>2010-08-29T10:36:12Z</time>
<desc>lat.=56.020966, lon.=26.528349, Alt.=105.961975m. Speed=16.020000m/h.</desc>
<speed>4.450000</speed>
</trkpt>
<trkpt lat="56.020401" lon="26.528326">
<ele>111.3</ele>
<time>2010-08-29T10:36:28Z</time>
<desc>lat.=56.020401, lon.=26.528326, Alt.=105.231506m. Speed=11.448000m/h.</desc>
<speed>3.180000</speed>
</trkpt>
<trkpt lat="56.019970" lon="26.527994">
<ele>109.7</ele>
<time>2010-08-29T10:36:39Z</time>
<desc>lat.=56.019970, lon.=26.527994, Alt.=106.399475m. Speed=16.524000m/h.</desc>
<speed>4.590000</speed>
</trkpt>
<trkpt lat="56.019741" lon="26.527414">
<ele>109.5</ele>
<time>2010-08-29T10:36:50Z</time>
<desc>lat.=56.019741, lon.=26.527414, Alt.=105.286194m. Speed=12.924000m/h.</desc>
<speed>3.590000</speed>
</trkpt>
<trkpt lat="56.019955" lon="26.524199">
<ele>107.0</ele>
<time>2010-08-29T10:37:48Z</time>
<desc>lat.=56.019955, lon.=26.524199, Alt.=101.335022m. Speed=10.116000m/h.</desc>
<speed>2.810000</speed>
</trkpt>
<trkpt lat="56.020546" lon="26.521030">
<ele>106.6</ele>
<time>2010-08-29T10:38:45Z</time>
<desc>lat.=56.020546, lon.=26.521030, Alt.=95.967834m. Speed=11.592000m/h.</desc>
<speed>3.220000</speed>
</trkpt>
<trkpt lat="56.021172" lon="26.519304">
<ele>108.1</ele>
<time>2010-08-29T10:39:22Z</time>
<desc>lat.=56.021172, lon.=26.519304, Alt.=92.243225m. Speed=12.492000m/h.</desc>
<speed>3.470000</speed>
</trkpt>
<trkpt lat="56.023083" lon="26.518227">
<ele>109.5</ele>
<time>2010-08-29T10:40:26Z</time>
<desc>lat.=56.023083, lon.=26.518227, Alt.=101.313538m. Speed=11.628000m/h.</desc>
<speed>3.230000</speed>
</trkpt>
<trkpt lat="56.024845" lon="26.515585">
<ele>109.2</ele>
<time>2010-08-29T10:41:41Z</time>
<desc>lat.=56.024845, lon.=26.515585, Alt.=107.651428m. Speed=16.020000m/h.</desc>
<speed>4.450000</speed>
</trkpt>
<trkpt lat="56.025265" lon="26.514647">
<ele>114.9</ele>
<time>2010-08-29T10:44:21Z</time>
<desc>lat.=56.025265, lon.=26.514647, Alt.=112.876038m. Speed=8.100000m/h.</desc>
<speed>2.250000</speed>
</trkpt>
<trkpt lat="56.026917" lon="26.515324">
<ele>111.0</ele>
<time>2010-08-29T10:45:28Z</time>
<desc>lat.=56.026917, lon.=26.515324, Alt.=103.649475m. Speed=13.644000m/h.</desc>
<speed>3.790000</speed>
</trkpt>
<trkpt lat="56.033955" lon="26.519199">
<ele>110.4</ele>
<time>2010-08-29T10:47:34Z</time>
<desc>lat.=56.033955, lon.=26.519199, Alt.=100.145569m. Speed=17.532000m/h.</desc>
<speed>4.870000</speed>
</trkpt>
<trkpt lat="56.039818" lon="26.526730">
<ele>104.8</ele>
<time>2010-08-29T10:49:59Z</time>
<desc>lat.=56.039818, lon.=26.526730, Alt.=91.645569m. Speed=21.600000m/h.</desc>
<speed>6.000000</speed>
</trkpt>
<trkpt lat="56.042095" lon="26.527863">
<ele>108.8</ele>
<time>2010-08-29T10:50:49Z</time>
<desc>lat.=56.042095, lon.=26.527863, Alt.=99.622131m. Speed=12.816000m/h.</desc>
<speed>3.560000</speed>
</trkpt>
<trkpt lat="56.046898" lon="26.532537">
<ele>106.4</ele>
<time>2010-08-29T10:52:43Z</time>
<desc>lat.=56.046898, lon.=26.532537, Alt.=103.292053m. Speed=25.236000m/h.</desc>
<speed>7.010000</speed>
</trkpt>
<trkpt lat="56.047821" lon="26.533009">
<ele>107.4</ele>
<time>2010-08-29T10:52:59Z</time>
<desc>lat.=56.047821, lon.=26.533009, Alt.=105.629944m. Speed=23.256001m/h.</desc>
<speed>6.460000</speed>
</trkpt>
<trkpt lat="56.054283" lon="26.533417">
<ele>106.4</ele>
<time>2010-08-29T10:59:29Z</time>
<desc>lat.=56.054283, lon.=26.533417, Alt.=99.754944m. Speed=3.888000m/h.</desc>
<speed>1.080000</speed>
</trkpt>
<trkpt lat="56.054218" lon="26.533134">
<ele>105.6</ele>
<time>2010-08-29T10:59:46Z</time>
<desc>lat.=56.054218, lon.=26.533134, Alt.=101.143616m. Speed=7.848000m/h.</desc>
<speed>2.180000</speed>
</trkpt>
<trkpt lat="56.054558" lon="26.531174">
<ele>106.3</ele>
<time>2010-08-29T11:00:29Z</time>
<desc>lat.=56.054558, lon.=26.531174, Alt.=102.006897m. Speed=11.160000m/h.</desc>
<speed>3.100000</speed>
</trkpt>
<trkpt lat="56.054844" lon="26.530203">
<ele>105.2</ele>
<time>2010-08-29T11:00:45Z</time>
<desc>lat.=56.054844, lon.=26.530203, Alt.=99.676819m. Speed=15.876000m/h.</desc>
<speed>4.410000</speed>
</trkpt>
<trkpt lat="56.056160" lon="26.528854">
<ele>106.1</ele>
<time>2010-08-29T11:01:36Z</time>
<desc>lat.=56.056160, lon.=26.528854, Alt.=92.588928m. Speed=6.912000m/h.</desc>
<speed>1.920000</speed>
</trkpt>
<trkpt lat="56.058262" lon="26.530155">
<ele>104.0</ele>
<time>2010-08-29T11:02:46Z</time>
<desc>lat.=56.058262, lon.=26.530155, Alt.=91.997131m. Speed=14.328000m/h.</desc>
<speed>3.980000</speed>
</trkpt>
<trkpt lat="56.058601" lon="26.533695">
<ele>106.4</ele>
<time>2010-08-29T11:03:43Z</time>
<desc>lat.=56.058601, lon.=26.533695, Alt.=94.004944m. Speed=8.712000m/h.</desc>
<speed>2.420000</speed>
</trkpt>
<trkpt lat="56.064236" lon="26.534130">
<ele>111.7</ele>
<time>2010-08-29T11:06:02Z</time>
<desc>lat.=56.064236, lon.=26.534130, Alt.=104.075256m. Speed=4.788000m/h.</desc>
<speed>1.330000</speed>
</trkpt>
<trkpt lat="56.066326" lon="26.530903">
<ele>113.2</ele>
<time>2010-08-29T11:07:56Z</time>
<desc>lat.=56.066326, lon.=26.530903, Alt.=113.045959m. Speed=7.632000m/h.</desc>
<speed>2.120000</speed>
</trkpt>
<trkpt lat="56.067825" lon="26.527555">
<ele>108.4</ele>
<time>2010-08-29T11:09:05Z</time>
<desc>lat.=56.067825, lon.=26.527555, Alt.=103.913147m. Speed=10.440000m/h.</desc>
<speed>2.900000</speed>
</trkpt>
<trkpt lat="56.070107" lon="26.525738">
<ele>106.9</ele>
<time>2010-08-29T11:10:17Z</time>
<desc>lat.=56.070107, lon.=26.525738, Alt.=78.870178m. Speed=10.872000m/h.</desc>
<speed>3.020000</speed>
</trkpt>
<trkpt lat="56.070911" lon="26.525478">
<ele>104.9</ele>
<time>2010-08-29T11:11:17Z</time>
<desc>lat.=56.070911, lon.=26.525478, Alt.=88.545959m. Speed=8.964000m/h.</desc>
<speed>2.490000</speed>
</trkpt>
<trkpt lat="56.071465" lon="26.524977">
<ele>104.4</ele>
<time>2010-08-29T11:11:52Z</time>
<desc>lat.=56.071465, lon.=26.524977, Alt.=83.454163m. Speed=9.900000m/h.</desc>
<speed>2.750000</speed>
</trkpt>
<trkpt lat="56.071571" lon="26.524065">
<ele>101.4</ele>
<time>2010-08-29T11:12:08Z</time>
<desc>lat.=56.071571, lon.=26.524065, Alt.=78.723694m. Speed=14.040000m/h.</desc>
<speed>3.900000</speed>
</trkpt>
<trkpt lat="56.072113" lon="26.524054">
<ele>101.8</ele>
<time>2010-08-29T11:12:23Z</time>
<desc>lat.=56.072113, lon.=26.524054, Alt.=82.292053m. Speed=9.324000m/h.</desc>
<speed>2.590000</speed>
</trkpt>
<trkpt lat="56.072132" lon="26.523624">
<ele>101.8</ele>
<time>2010-08-29T11:12:37Z</time>
<desc>lat.=56.072132, lon.=26.523624, Alt.=88.485413m. Speed=9.972000m/h.</desc>
<speed>2.770000</speed>
</trkpt>
<trkpt lat="56.069649" lon="26.517385">
<ele>101.6</ele>
<time>2010-08-29T11:15:50Z</time>
<desc>lat.=56.069649, lon.=26.517385, Alt.=119.299866m. Speed=0.468000m/h.</desc>
<speed>0.130000</speed>
</trkpt>
<trkpt lat="56.067467" lon="26.514614">
<ele>107.0</ele>
<time>2010-08-29T11:17:15Z</time>
<desc>lat.=56.067467, lon.=26.514614, Alt.=141.318481m. Speed=14.796000m/h.</desc>
<speed>4.110000</speed>
</trkpt>
<trkpt lat="56.065742" lon="26.512859">
<ele>105.5</ele>
<time>2010-08-29T11:18:03Z</time>
<desc>lat.=56.065742, lon.=26.512859, Alt.=132.541138m. Speed=0.324000m/h.</desc>
<speed>0.090000</speed>
</trkpt>
<trkpt lat="56.065804" lon="26.510225">
<ele>107.9</ele>
<time>2010-08-29T11:19:05Z</time>
<desc>lat.=56.065804, lon.=26.510225, Alt.=116.151428m. Speed=14.616000m/h.</desc>
<speed>4.060000</speed>
</trkpt>
<trkpt lat="56.066494" lon="26.507704">
<ele>106.8</ele>
<time>2010-08-29T11:20:17Z</time>
<desc>lat.=56.066494, lon.=26.507704, Alt.=97.540100m. Speed=2.196000m/h.</desc>
<speed>0.610000</speed>
</trkpt>
<trkpt lat="56.066341" lon="26.507950">
<ele>106.6</ele>
<time>2010-08-29T11:21:34Z</time>
<desc>lat.=56.066341, lon.=26.507950, Alt.=97.165100m. Speed=4.680000m/h.</desc>
<speed>1.300000</speed>
</trkpt>
<trkpt lat="56.066303" lon="26.508177">
<ele>106.7</ele>
<time>2010-08-29T11:21:45Z</time>
<desc>lat.=56.066303, lon.=26.508177, Alt.=96.907288m. Speed=1.656000m/h.</desc>
<speed>0.460000</speed>
</trkpt>
<trkpt lat="56.066776" lon="26.507267">
<ele>107.0</ele>
<time>2010-08-29T11:30:47Z</time>
<desc>lat.=56.066776, lon.=26.507267, Alt.=103.870178m. Speed=7.164000m/h.</desc>
<speed>1.990000</speed>
</trkpt>
<trkpt lat="56.066772" lon="26.506878">
<ele>106.9</ele>
<time>2010-08-29T11:30:56Z</time>
<desc>lat.=56.066772, lon.=26.506878, Alt.=104.659241m. Speed=9.936000m/h.</desc>
<speed>2.760000</speed>
</trkpt>
<trkpt lat="56.065895" lon="26.504547">
<ele>106.8</ele>
<time>2010-08-29T11:31:53Z</time>
<desc>lat.=56.065895, lon.=26.504547, Alt.=105.032288m. Speed=12.276000m/h.</desc>
<speed>3.410000</speed>
</trkpt>
<trkpt lat="56.065079" lon="26.503496">
<ele>109.0</ele>
<time>2010-08-29T11:32:35Z</time>
<desc>lat.=56.065079, lon.=26.503496, Alt.=106.292053m. Speed=9.504000m/h.</desc>
<speed>2.640000</speed>
</trkpt>
<trkpt lat="56.063377" lon="26.499508">
<ele>105.7</ele>
<time>2010-08-29T11:33:58Z</time>
<desc>lat.=56.063377, lon.=26.499508, Alt.=102.795959m. Speed=21.132000m/h.</desc>
<speed>5.870000</speed>
</trkpt>
<trkpt lat="56.062775" lon="26.497274">
<ele>107.7</ele>
<time>2010-08-29T11:35:13Z</time>
<desc>lat.=56.062775, lon.=26.497274, Alt.=103.145569m. Speed=14.868000m/h.</desc>
<speed>4.130000</speed>
</trkpt>
<trkpt lat="56.060650" lon="26.493362">
<ele>107.8</ele>
<time>2010-08-29T11:36:27Z</time>
<desc>lat.=56.060650, lon.=26.493362, Alt.=104.821350m. Speed=19.764000m/h.</desc>
<speed>5.490000</speed>
</trkpt>
<trkpt lat="56.060268" lon="26.491522">
<ele>107.0</ele>
<time>2010-08-29T11:36:54Z</time>
<desc>lat.=56.060268, lon.=26.491522, Alt.=128.619263m. Speed=16.488001m/h.</desc>
<speed>4.580000</speed>
</trkpt>
<trkpt lat="56.059338" lon="26.490047">
<ele>108.3</ele>
<time>2010-08-29T11:37:25Z</time>
<desc>lat.=56.059338, lon.=26.490047, Alt.=99.538147m. Speed=12.708000m/h.</desc>
<speed>3.530000</speed>
</trkpt>
<trkpt lat="56.058537" lon="26.484621">
<ele>110.2</ele>
<time>2010-08-29T11:38:50Z</time>
<desc>lat.=56.058537, lon.=26.484621, Alt.=137.435669m. Speed=14.148000m/h.</desc>
<speed>3.930000</speed>
</trkpt>
<trkpt lat="56.058033" lon="26.483118">
<ele>110.6</ele>
<time>2010-08-29T11:39:13Z</time>
<desc>lat.=56.058033, lon.=26.483118, Alt.=128.295044m. Speed=7.776000m/h.</desc>
<speed>2.160000</speed>
</trkpt>
<trkpt lat="56.058727" lon="26.482061">
<ele>110.4</ele>
<time>2010-08-29T11:39:40Z</time>
<desc>lat.=56.058727, lon.=26.482061, Alt.=100.971741m. Speed=13.428000m/h.</desc>
<speed>3.730000</speed>
</trkpt>
<trkpt lat="56.060810" lon="26.481262">
<ele>111.0</ele>
<time>2010-08-29T11:40:25Z</time>
<desc>lat.=56.060810, lon.=26.481262, Alt.=92.512756m. Speed=17.820000m/h.</desc>
<speed>4.950000</speed>
</trkpt>
<trkpt lat="56.063049" lon="26.478182">
<ele>107.8</ele>
<time>2010-08-29T11:41:27Z</time>
<desc>lat.=56.063049, lon.=26.478182, Alt.=99.008850m. Speed=10.044000m/h.</desc>
<speed>2.790000</speed>
</trkpt>
<trkpt lat="56.063896" lon="26.479931">
<ele>104.8</ele>
<time>2010-08-29T11:42:06Z</time>
<desc>lat.=56.063896, lon.=26.479931, Alt.=96.169006m. Speed=14.256000m/h.</desc>
<speed>3.960000</speed>
</trkpt>
<trkpt lat="56.064835" lon="26.480991">
<ele>113.3</ele>
<time>2010-08-29T11:42:35Z</time>
<desc>lat.=56.064835, lon.=26.480991, Alt.=97.938538m. Speed=8.748000m/h.</desc>
<speed>2.430000</speed>
</trkpt>
<trkpt lat="56.064926" lon="26.481409">
<ele>114.1</ele>
<time>2010-08-29T11:57:45Z</time>
<desc>lat.=56.064926, lon.=26.481409, Alt.=103.592834m. Speed=0.000000m/h.</desc>
<speed>0.000000</speed>
</trkpt>
<trkpt lat="56.064789" lon="26.480917">
<ele>112.0</ele>
<time>2010-08-29T11:58:11Z</time>
<desc>lat.=56.064789, lon.=26.480917, Alt.=101.286194m. Speed=9.216000m/h.</desc>
<speed>2.560000</speed>
</trkpt>
<trkpt lat="56.063892" lon="26.479860">
<ele>104.8</ele>
<time>2010-08-29T11:58:43Z</time>
<desc>lat.=56.063892, lon.=26.479860, Alt.=98.391663m. Speed=9.144000m/h.</desc>
<speed>2.540000</speed>
</trkpt>
<trkpt lat="56.063126" lon="26.478109">
<ele>107.9</ele>
<time>2010-08-29T11:59:28Z</time>
<desc>lat.=56.063126, lon.=26.478109, Alt.=101.690491m. Speed=5.184000m/h.</desc>
<speed>1.440000</speed>
</trkpt>
<trkpt lat="56.065105" lon="26.474941">
<ele>110.2</ele>
<time>2010-08-29T12:00:43Z</time>
<desc>lat.=56.065105, lon.=26.474941, Alt.=116.641663m. Speed=18.216000m/h.</desc>
<speed>5.060000</speed>
</trkpt>
<trkpt lat="56.068516" lon="26.470850">
<ele>108.0</ele>
<time>2010-08-29T12:02:26Z</time>
<desc>lat.=56.068516, lon.=26.470850, Alt.=101.208069m. Speed=10.080000m/h.</desc>
<speed>2.800000</speed>
</trkpt>
<trkpt lat="56.067623" lon="26.467108">
<ele>108.8</ele>
<time>2010-08-29T12:03:36Z</time>
<desc>lat.=56.067623, lon.=26.467108, Alt.=106.266663m. Speed=16.920000m/h.</desc>
<speed>4.700000</speed>
</trkpt>
<trkpt lat="56.067524" lon="26.464762">
<ele>118.5</ele>
<time>2010-08-29T12:04:07Z</time>
<desc>lat.=56.067524, lon.=26.464762, Alt.=105.958069m. Speed=21.024000m/h.</desc>
<speed>5.840000</speed>
</trkpt>
<trkpt lat="56.067299" lon="26.463947">
<ele>118.2</ele>
<time>2010-08-29T12:04:29Z</time>
<desc>lat.=56.067299, lon.=26.463947, Alt.=103.286194m. Speed=1.944000m/h.</desc>
<speed>0.540000</speed>
</trkpt>
<trkpt lat="56.067413" lon="26.464159">
<ele>118.2</ele>
<time>2010-08-29T12:04:42Z</time>
<desc>lat.=56.067413, lon.=26.464159, Alt.=105.696350m. Speed=4.788000m/h.</desc>
<speed>1.330000</speed>
</trkpt>
<trkpt lat="56.067616" lon="26.463463">
<ele>109.1</ele>
<time>2010-08-29T12:05:27Z</time>
<desc>lat.=56.067616, lon.=26.463463, Alt.=109.327209m. Speed=6.156000m/h.</desc>
<speed>1.710000</speed>
</trkpt>
<trkpt lat="56.068058" lon="26.462952">
<ele>110.9</ele>
<time>2010-08-29T12:06:18Z</time>
<desc>lat.=56.068058, lon.=26.462952, Alt.=115.044006m. Speed=1.908000m/h.</desc>
<speed>0.530000</speed>
</trkpt>
<trkpt lat="56.068226" lon="26.463079">
<ele>112.1</ele>
<time>2010-08-29T12:06:38Z</time>
<desc>lat.=56.068226, lon.=26.463079, Alt.=112.001038m. Speed=1.116000m/h.</desc>
<speed>0.310000</speed>
</trkpt>
<trkpt lat="56.068150" lon="26.462790">
<ele>110.7</ele>
<time>2010-08-29T12:07:00Z</time>
<desc>lat.=56.068150, lon.=26.462790, Alt.=107.993225m. Speed=4.104000m/h.</desc>
<speed>1.140000</speed>
</trkpt>
<trkpt lat="56.068275" lon="26.462534">
<ele>111.2</ele>
<time>2010-08-29T12:07:23Z</time>
<desc>lat.=56.068275, lon.=26.462534, Alt.=106.530334m. Speed=5.004000m/h.</desc>
<speed>1.390000</speed>
</trkpt>
<trkpt lat="56.070110" lon="26.463078">
<ele>120.4</ele>
<time>2010-08-29T12:12:14Z</time>
<desc>lat.=56.070110, lon.=26.463078, Alt.=118.075256m. Speed=0.540000m/h.</desc>
<speed>0.150000</speed>
</trkpt>
<trkpt lat="56.070091" lon="26.463264">
<ele>118.8</ele>
<time>2010-08-29T12:13:02Z</time>
<desc>lat.=56.070091, lon.=26.463264, Alt.=119.501038m. Speed=0.396000m/h.</desc>
<speed>0.110000</speed>
</trkpt>
<trkpt lat="56.070431" lon="26.463449">
<ele>114.5</ele>
<time>2010-08-29T12:13:48Z</time>
<desc>lat.=56.070431, lon.=26.463449, Alt.=124.483459m. Speed=1.584000m/h.</desc>
<speed>0.440000</speed>
</trkpt>
<trkpt lat="56.070160" lon="26.463333">
<ele>117.7</ele>
<time>2010-08-29T12:14:31Z</time>
<desc>lat.=56.070160, lon.=26.463333, Alt.=129.490356m. Speed=0.144000m/h.</desc>
<speed>0.040000</speed>
</trkpt>
<trkpt lat="56.070370" lon="26.463472">
<ele>114.6</ele>
<time>2010-08-29T12:16:57Z</time>
<desc>lat.=56.070370, lon.=26.463472, Alt.=123.104553m. Speed=0.468000m/h.</desc>
<speed>0.130000</speed>
</trkpt>
<trkpt lat="56.070286" lon="26.464100">
<ele>110.6</ele>
<time>2010-08-29T12:29:19Z</time>
<desc>lat.=56.070286, lon.=26.464100, Alt.=110.174866m. Speed=1.260000m/h.</desc>
<speed>0.350000</speed>
</trkpt>
<trkpt lat="56.070362" lon="26.460859">
<ele>127.3</ele>
<time>2010-08-29T12:33:53Z</time>
<desc>lat.=56.070362, lon.=26.460859, Alt.=127.598694m. Speed=1.152000m/h.</desc>
<speed>0.320000</speed>
</trkpt>
<trkpt lat="56.070644" lon="26.460175">
<ele>129.7</ele>
<time>2010-08-29T12:36:08Z</time>
<desc>lat.=56.070644, lon.=26.460175, Alt.=128.791138m. Speed=1.008000m/h.</desc>
<speed>0.280000</speed>
</trkpt>
<trkpt lat="56.070503" lon="26.460377">
<ele>130.1</ele>
<time>2010-08-29T12:37:09Z</time>
<desc>lat.=56.070503, lon.=26.460377, Alt.=129.463013m. Speed=1.224000m/h.</desc>
<speed>0.340000</speed>
</trkpt>
<trkpt lat="56.070763" lon="26.459064">
<ele>130.9</ele>
<time>2010-08-29T12:38:06Z</time>
<desc>lat.=56.070763, lon.=26.459064, Alt.=126.901428m. Speed=1.512000m/h.</desc>
<speed>0.420000</speed>
</trkpt>
<trkpt lat="56.070469" lon="26.458313">
<ele>133.5</ele>
<time>2010-08-29T12:38:59Z</time>
<desc>lat.=56.070469, lon.=26.458313, Alt.=119.516663m. Speed=2.448000m/h.</desc>
<speed>0.680000</speed>
</trkpt>
<trkpt lat="56.069092" lon="26.457783">
<ele>122.7</ele>
<time>2010-08-29T12:44:40Z</time>
<desc>lat.=56.069092, lon.=26.457783, Alt.=123.141663m. Speed=0.540000m/h.</desc>
<speed>0.150000</speed>
</trkpt>
<trkpt lat="56.068989" lon="26.457901">
<ele>121.1</ele>
<time>2010-08-29T12:45:15Z</time>
<desc>lat.=56.068989, lon.=26.457901, Alt.=126.467834m. Speed=0.972000m/h.</desc>
<speed>0.270000</speed>
</trkpt>
<trkpt lat="56.070190" lon="26.458345">
<ele>131.9</ele>
<time>2010-08-29T12:52:21Z</time>
<desc>lat.=56.070190, lon.=26.458345, Alt.=124.436584m. Speed=1.800000m/h.</desc>
<speed>0.500000</speed>
</trkpt>
<trkpt lat="56.070526" lon="26.459148">
<ele>132.3</ele>
<time>2010-08-29T12:53:29Z</time>
<desc>lat.=56.070526, lon.=26.459148, Alt.=126.672913m. Speed=2.808000m/h.</desc>
<speed>0.780000</speed>
</trkpt>
<trkpt lat="56.070568" lon="26.460077">
<ele>130.9</ele>
<time>2010-08-29T12:54:06Z</time>
<desc>lat.=56.070568, lon.=26.460077, Alt.=122.741272m. Speed=3.780000m/h.</desc>
<speed>1.050000</speed>
</trkpt>
<trkpt lat="56.070110" lon="26.461981">
<ele>124.1</ele>
<time>2010-08-29T12:56:11Z</time>
<desc>lat.=56.070110, lon.=26.461981, Alt.=119.938538m. Speed=4.932000m/h.</desc>
<speed>1.370000</speed>
</trkpt>
<trkpt lat="56.070290" lon="26.463331">
<ele>116.8</ele>
<time>2010-08-29T12:57:21Z</time>
<desc>lat.=56.070290, lon.=26.463331, Alt.=113.684631m. Speed=1.152000m/h.</desc>
<speed>0.320000</speed>
</trkpt>
<trkpt lat="56.069653" lon="26.463261">
<ele>119.6</ele>
<time>2010-08-29T13:01:03Z</time>
<desc>lat.=56.069653, lon.=26.463261, Alt.=112.282288m. Speed=0.252000m/h.</desc>
<speed>0.070000</speed>
</trkpt>
<trkpt lat="56.069820" lon="26.463587">
<ele>117.4</ele>
<time>2010-08-29T13:01:53Z</time>
<desc>lat.=56.069820, lon.=26.463587, Alt.=112.350647m. Speed=3.744000m/h.</desc>
<speed>1.040000</speed>
</trkpt>
<trkpt lat="56.070019" lon="26.463118">
<ele>120.3</ele>
<time>2010-08-29T13:05:11Z</time>
<desc>lat.=56.070019, lon.=26.463118, Alt.=113.848694m. Speed=0.540000m/h.</desc>
<speed>0.150000</speed>
</trkpt>
<trkpt lat="56.070259" lon="26.463125">
<ele>119.2</ele>
<time>2010-08-29T13:06:57Z</time>
<desc>lat.=56.070259, lon.=26.463125, Alt.=114.405334m. Speed=0.432000m/h.</desc>
<speed>0.120000</speed>
</trkpt>
<trkpt lat="56.070019" lon="26.463430">
<ele>117.7</ele>
<time>2010-08-29T13:10:38Z</time>
<desc>lat.=56.070019, lon.=26.463430, Alt.=124.946350m. Speed=3.384000m/h.</desc>
<speed>0.940000</speed>
</trkpt>
<trkpt lat="56.069824" lon="26.463255">
<ele>119.8</ele>
<time>2010-08-29T13:11:02Z</time>
<desc>lat.=56.069824, lon.=26.463255, Alt.=126.149475m. Speed=0.900000m/h.</desc>
<speed>0.250000</speed>
</trkpt>
<trkpt lat="56.069813" lon="26.463444">
<ele>118.6</ele>
<time>2010-08-29T13:11:54Z</time>
<desc>lat.=56.069813, lon.=26.463444, Alt.=129.275513m. Speed=2.772000m/h.</desc>
<speed>0.770000</speed>
</trkpt>
<trkpt lat="56.069855" lon="26.463289">
<ele>119.6</ele>
<time>2010-08-29T13:12:11Z</time>
<desc>lat.=56.069855, lon.=26.463289, Alt.=130.943481m. Speed=1.404000m/h.</desc>
<speed>0.390000</speed>
</trkpt>
<trkpt lat="56.069515" lon="26.463051">
<ele>120.4</ele>
<time>2010-08-29T13:13:38Z</time>
<desc>lat.=56.069515, lon.=26.463051, Alt.=129.439575m. Speed=1.656000m/h.</desc>
<speed>0.460000</speed>
</trkpt>
<trkpt lat="56.069157" lon="26.463190">
<ele>118.4</ele>
<time>2010-08-29T13:16:49Z</time>
<desc>lat.=56.069157, lon.=26.463190, Alt.=127.114319m. Speed=0.972000m/h.</desc>
<speed>0.270000</speed>
</trkpt>
<trkpt lat="56.069099" lon="26.462650">
<ele>121.8</ele>
<time>2010-08-29T13:18:02Z</time>
<desc>lat.=56.069099, lon.=26.462650, Alt.=127.741272m. Speed=0.036000m/h.</desc>
<speed>0.010000</speed>
</trkpt>
<trkpt lat="56.068417" lon="26.462452">
<ele>111.7</ele>
<time>2010-08-29T13:19:11Z</time>
<desc>lat.=56.068417, lon.=26.462452, Alt.=119.524475m. Speed=6.336000m/h.</desc>
<speed>1.760000</speed>
</trkpt>
<trkpt lat="56.067482" lon="26.463711">
<ele>112.0</ele>
<time>2010-08-29T13:20:54Z</time>
<desc>lat.=56.067482, lon.=26.463711, Alt.=89.581116m. Speed=0.900000m/h.</desc>
<speed>0.250000</speed>
</trkpt>
<trkpt lat="56.067436" lon="26.466570">
<ele>108.2</ele>
<time>2010-08-29T13:22:42Z</time>
<desc>lat.=56.067436, lon.=26.466570, Alt.=89.864319m. Speed=12.924000m/h.</desc>
<speed>3.590000</speed>
</trkpt>
<trkpt lat="56.068008" lon="26.469002">
<ele>107.5</ele>
<time>2010-08-29T13:23:26Z</time>
<desc>lat.=56.068008, lon.=26.469002, Alt.=91.088928m. Speed=13.212000m/h.</desc>
<speed>3.670000</speed>
</trkpt>
<trkpt lat="56.068577" lon="26.470753">
<ele>108.2</ele>
<time>2010-08-29T13:24:03Z</time>
<desc>lat.=56.068577, lon.=26.470753, Alt.=104.376038m. Speed=5.112000m/h.</desc>
<speed>1.420000</speed>
</trkpt>
<trkpt lat="56.069874" lon="26.470524">
<ele>106.6</ele>
<time>2010-08-29T13:24:52Z</time>
<desc>lat.=56.069874, lon.=26.470524, Alt.=102.639709m. Speed=12.744000m/h.</desc>
<speed>3.540000</speed>
</trkpt>
<trkpt lat="56.071609" lon="26.471003">
<ele>103.7</ele>
<time>2010-08-29T13:25:49Z</time>
<desc>lat.=56.071609, lon.=26.471003, Alt.=100.836975m. Speed=11.916000m/h.</desc>
<speed>3.310000</speed>
</trkpt>
<trkpt lat="56.072346" lon="26.471390">
<ele>106.5</ele>
<time>2010-08-29T13:26:15Z</time>
<desc>lat.=56.072346, lon.=26.471390, Alt.=102.217834m. Speed=0.576000m/h.</desc>
<speed>0.160000</speed>
</trkpt>
<trkpt lat="56.072800" lon="26.472332">
<ele>109.2</ele>
<time>2010-08-29T13:27:42Z</time>
<desc>lat.=56.072800, lon.=26.472332, Alt.=119.288147m. Speed=4.320000m/h.</desc>
<speed>1.200000</speed>
</trkpt>
<trkpt lat="56.073261" lon="26.472717">
<ele>119.8</ele>
<time>2010-08-29T13:28:47Z</time>
<desc>lat.=56.073261, lon.=26.472717, Alt.=121.235413m. Speed=2.340000m/h.</desc>
<speed>0.650000</speed>
</trkpt>
<trkpt lat="56.073841" lon="26.472860">
<ele>112.0</ele>
<time>2010-08-29T13:29:15Z</time>
<desc>lat.=56.073841, lon.=26.472860, Alt.=115.208069m. Speed=14.940000m/h.</desc>
<speed>4.150000</speed>
</trkpt>
<trkpt lat="56.074879" lon="26.474697">
<ele>109.6</ele>
<time>2010-08-29T13:30:00Z</time>
<desc>lat.=56.074879, lon.=26.474697, Alt.=117.598694m. Speed=9.684000m/h.</desc>
<speed>2.690000</speed>
</trkpt>
<trkpt lat="56.075420" lon="26.476059">
<ele>111.9</ele>
<time>2010-08-29T13:31:03Z</time>
<desc>lat.=56.075420, lon.=26.476059, Alt.=112.627991m. Speed=12.816000m/h.</desc>
<speed>3.560000</speed>
</trkpt>
<trkpt lat="56.076607" lon="26.477985">
<ele>107.6</ele>
<time>2010-08-29T13:31:43Z</time>
<desc>lat.=56.076607, lon.=26.477985, Alt.=110.661194m. Speed=13.968000m/h.</desc>
<speed>3.880000</speed>
</trkpt>
<trkpt lat="56.077839" lon="26.481081">
<ele>107.1</ele>
<time>2010-08-29T13:32:45Z</time>
<desc>lat.=56.077839, lon.=26.481081, Alt.=93.655334m. Speed=12.276000m/h.</desc>
<speed>3.410000</speed>
</trkpt>
<trkpt lat="56.078007" lon="26.481867">
<ele>108.4</ele>
<time>2010-08-29T13:33:00Z</time>
<desc>lat.=56.078007, lon.=26.481867, Alt.=95.583069m. Speed=8.676000m/h.</desc>
<speed>2.410000</speed>
</trkpt>
<trkpt lat="56.078217" lon="26.482103">
<ele>108.5</ele>
<time>2010-08-29T13:33:08Z</time>
<desc>lat.=56.078217, lon.=26.482103, Alt.=99.219788m. Speed=8.280000m/h.</desc>
<speed>2.300000</speed>
</trkpt>
<trkpt lat="56.079739" lon="26.482056">
<ele>109.0</ele>
<time>2010-08-29T13:34:04Z</time>
<desc>lat.=56.079739, lon.=26.482056, Alt.=101.756897m. Speed=0.000000m/h.</desc>
<speed>0.000000</speed>
</trkpt>
<trkpt lat="56.079372" lon="26.487715">
<ele>107.4</ele>
<time>2010-08-29T13:36:21Z</time>
<desc>lat.=56.079372, lon.=26.487715, Alt.=93.241272m. Speed=11.520000m/h.</desc>
<speed>3.200000</speed>
</trkpt>
<trkpt lat="56.079727" lon="26.495100">
<ele>104.2</ele>
<time>2010-08-29T13:38:06Z</time>
<desc>lat.=56.079727, lon.=26.495100, Alt.=95.864319m. Speed=22.752001m/h.</desc>
<speed>6.320000</speed>
</trkpt>
<trkpt lat="56.080593" lon="26.499269">
<ele>105.7</ele>
<time>2010-08-29T13:39:04Z</time>
<desc>lat.=56.080593, lon.=26.499269, Alt.=96.045959m. Speed=16.596001m/h.</desc>
<speed>4.610000</speed>
</trkpt>
<trkpt lat="56.081821" lon="26.502419">
<ele>106.4</ele>
<time>2010-08-29T13:40:08Z</time>
<desc>lat.=56.081821, lon.=26.502419, Alt.=99.752991m. Speed=14.796000m/h.</desc>
<speed>4.110000</speed>
</trkpt>
<trkpt lat="56.082279" lon="26.504068">
<ele>109.3</ele>
<time>2010-08-29T13:41:15Z</time>
<desc>lat.=56.082279, lon.=26.504068, Alt.=101.301819m. Speed=11.268000m/h.</desc>
<speed>3.130000</speed>
</trkpt>
<trkpt lat="56.082062" lon="26.504570">
<ele>109.0</ele>
<time>2010-08-29T13:41:27Z</time>
<desc>lat.=56.082062, lon.=26.504570, Alt.=102.307678m. Speed=12.276000m/h.</desc>
<speed>3.410000</speed>
</trkpt>
<trkpt lat="56.078960" lon="26.507034">
<ele>109.8</ele>
<time>2010-08-29T13:42:52Z</time>
<desc>lat.=56.078960, lon.=26.507034, Alt.=106.092834m. Speed=17.063999m/h.</desc>
<speed>4.740000</speed>
</trkpt>
<trkpt lat="56.077065" lon="26.509476">
<ele>108.9</ele>
<time>2010-08-29T13:43:55Z</time>
<desc>lat.=56.077065, lon.=26.509476, Alt.=115.551819m. Speed=13.752000m/h.</desc>
<speed>3.820000</speed>
</trkpt>
<trkpt lat="56.074699" lon="26.515604">
<ele>105.2</ele>
<time>2010-08-29T13:45:32Z</time>
<desc>lat.=56.074699, lon.=26.515604, Alt.=104.602600m. Speed=15.444000m/h.</desc>
<speed>4.290000</speed>
</trkpt>
<trkpt lat="56.074020" lon="26.516949">
<ele>104.0</ele>
<time>2010-08-29T13:45:57Z</time>
<desc>lat.=56.074020, lon.=26.516949, Alt.=100.678772m. Speed=18.360001m/h.</desc>
<speed>5.100000</speed>
</trkpt>
<trkpt lat="56.071445" lon="26.517317">
<ele>103.4</ele>
<time>2010-08-29T13:46:53Z</time>
<desc>lat.=56.071445, lon.=26.517317, Alt.=97.708069m. Speed=16.884001m/h.</desc>
<speed>4.690000</speed>
</trkpt>
<trkpt lat="56.070301" lon="26.518005">
<ele>102.9</ele>
<time>2010-08-29T13:47:20Z</time>
<desc>lat.=56.070301, lon.=26.518005, Alt.=98.788147m. Speed=13.464000m/h.</desc>
<speed>3.740000</speed>
</trkpt>
<trkpt lat="56.070007" lon="26.518242">
<ele>104.1</ele>
<time>2010-08-29T13:48:05Z</time>
<desc>lat.=56.070007, lon.=26.518242, Alt.=98.895569m. Speed=3.132000m/h.</desc>
<speed>0.870000</speed>
</trkpt>
<trkpt lat="56.070026" lon="26.518435">
<ele>103.8</ele>
<time>2010-08-29T13:48:12Z</time>
<desc>lat.=56.070026, lon.=26.518435, Alt.=99.178772m. Speed=3.456000m/h.</desc>
<speed>0.960000</speed>
</trkpt>
<trkpt lat="56.076077" lon="26.533371">
<ele>106.5</ele>
<time>2010-08-29T13:51:59Z</time>
<desc>lat.=56.076077, lon.=26.533371, Alt.=96.383850m. Speed=13.788000m/h.</desc>
<speed>3.830000</speed>
</trkpt>
<trkpt lat="56.076576" lon="26.534292">
<ele>108.4</ele>
<time>2010-08-29T13:52:21Z</time>
<desc>lat.=56.076576, lon.=26.534292, Alt.=97.176819m. Speed=12.924000m/h.</desc>
<speed>3.590000</speed>
</trkpt>
<trkpt lat="56.077560" lon="26.535414">
<ele>105.6</ele>
<time>2010-08-29T13:52:51Z</time>
<desc>lat.=56.077560, lon.=26.535414, Alt.=96.532288m. Speed=9.648000m/h.</desc>
<speed>2.680000</speed>
</trkpt>
<trkpt lat="56.084297" lon="26.542179">
<ele>100.3</ele>
<time>2010-08-29T13:56:22Z</time>
<desc>lat.=56.084297, lon.=26.542179, Alt.=92.618225m. Speed=17.784000m/h.</desc>
<speed>4.940000</speed>
</trkpt>
<trkpt lat="56.085453" lon="26.543030">
<ele>98.3</ele>
<time>2010-08-29T13:56:55Z</time>
<desc>lat.=56.085453, lon.=26.543030, Alt.=88.477600m. Speed=16.200001m/h.</desc>
<speed>4.500000</speed>
</trkpt>
<trkpt lat="56.086887" lon="26.543470">
<ele>99.3</ele>
<time>2010-08-29T13:57:36Z</time>
<desc>lat.=56.086887, lon.=26.543470, Alt.=95.092834m. Speed=6.840000m/h.</desc>
<speed>1.900000</speed>
</trkpt>
<trkpt lat="56.088959" lon="26.543598">
<ele>102.0</ele>
<time>2010-08-29T13:58:26Z</time>
<desc>lat.=56.088959, lon.=26.543598, Alt.=98.071350m. Speed=15.192000m/h.</desc>
<speed>4.220000</speed>
</trkpt>
<trkpt lat="56.097137" lon="26.543365">
<ele>113.4</ele>
<time>2010-08-29T14:01:36Z</time>
<desc>lat.=56.097137, lon.=26.543365, Alt.=99.782288m. Speed=12.888000m/h.</desc>
<speed>3.580000</speed>
</trkpt>
<trkpt lat="56.097286" lon="26.543509">
<ele>112.4</ele>
<time>2010-08-29T14:01:43Z</time>
<desc>lat.=56.097286, lon.=26.543509, Alt.=100.167053m. Speed=4.428000m/h.</desc>
<speed>1.230000</speed>
</trkpt>
<trkpt lat="56.097004" lon="26.545910">
<ele>109.7</ele>
<time>2010-08-29T14:02:29Z</time>
<desc>lat.=56.097004, lon.=26.545910, Alt.=101.721741m. Speed=13.716000m/h.</desc>
<speed>3.810000</speed>
</trkpt>
<trkpt lat="56.097126" lon="26.546753">
<ele>113.3</ele>
<time>2010-08-29T14:02:52Z</time>
<desc>lat.=56.097126, lon.=26.546753, Alt.=105.563538m. Speed=1.620000m/h.</desc>
<speed>0.450000</speed>
</trkpt>
<trkpt lat="56.096863" lon="26.547554">
<ele>110.7</ele>
<time>2010-08-29T14:26:11Z</time>
<desc>lat.=56.096863, lon.=26.547554, Alt.=98.653381m. Speed=5.436000m/h.</desc>
<speed>1.510000</speed>
</trkpt>
<trkpt lat="56.096970" lon="26.547743">
<ele>112.6</ele>
<time>2010-08-29T14:26:29Z</time>
<desc>lat.=56.096970, lon.=26.547743, Alt.=94.807678m. Speed=2.412000m/h.</desc>
<speed>0.670000</speed>
</trkpt>
<trkpt lat="56.096882" lon="26.547100">
<ele>110.6</ele>
<time>2010-08-29T14:39:39Z</time>
<desc>lat.=56.096882, lon.=26.547100, Alt.=90.411194m. Speed=8.568000m/h.</desc>
<speed>2.380000</speed>
</trkpt>
<trkpt lat="56.097343" lon="26.543566">
<ele>111.7</ele>
<time>2010-08-29T14:41:07Z</time>
<desc>lat.=56.097343, lon.=26.543566, Alt.=94.280334m. Speed=6.660000m/h.</desc>
<speed>1.850000</speed>
</trkpt>
<trkpt lat="56.096989" lon="26.543224">
<ele>111.8</ele>
<time>2010-08-29T14:41:23Z</time>
<desc>lat.=56.096989, lon.=26.543224, Alt.=90.975647m. Speed=11.520000m/h.</desc>
<speed>3.200000</speed>
</trkpt>
<trkpt lat="56.096825" lon="26.543367">
<ele>110.3</ele>
<time>2010-08-29T14:48:55Z</time>
<desc>lat.=56.096825, lon.=26.543367, Alt.=98.389709m. Speed=3.420000m/h.</desc>
<speed>0.950000</speed>
</trkpt>
<trkpt lat="56.097317" lon="26.543274">
<ele>111.0</ele>
<time>2010-08-29T14:49:37Z</time>
<desc>lat.=56.097317, lon.=26.543274, Alt.=101.985413m. Speed=3.672000m/h.</desc>
<speed>1.020000</speed>
</trkpt>
<trkpt lat="56.097393" lon="26.543041">
<ele>109.9</ele>
<time>2010-08-29T14:49:44Z</time>
<desc>lat.=56.097393, lon.=26.543041, Alt.=101.114319m. Speed=10.836000m/h.</desc>
<speed>3.010000</speed>
</trkpt>
<trkpt lat="56.098602" lon="26.535017">
<ele>105.5</ele>
<time>2010-08-29T14:52:22Z</time>
<desc>lat.=56.098602, lon.=26.535017, Alt.=98.899475m. Speed=11.592000m/h.</desc>
<speed>3.220000</speed>
</trkpt>
<trkpt lat="56.099380" lon="26.528067">
<ele>97.6</ele>
<time>2010-08-29T14:54:23Z</time>
<desc>lat.=56.099380, lon.=26.528067, Alt.=95.420959m. Speed=20.556000m/h.</desc>
<speed>5.710000</speed>
</trkpt>
<trkpt lat="56.100231" lon="26.523590">
<ele>106.0</ele>
<time>2010-08-29T14:55:29Z</time>
<desc>lat.=56.100231, lon.=26.523590, Alt.=87.631897m. Speed=11.808000m/h.</desc>
<speed>3.280000</speed>
</trkpt>
<trkpt lat="56.101994" lon="26.518431">
<ele>106.7</ele>
<time>2010-08-29T14:56:44Z</time>
<desc>lat.=56.101994, lon.=26.518431, Alt.=92.942444m. Speed=21.636000m/h.</desc>
<speed>6.010000</speed>
</trkpt>
<trkpt lat="56.102631" lon="26.515274">
<ele>106.5</ele>
<time>2010-08-29T14:57:22Z</time>
<desc>lat.=56.102631, lon.=26.515274, Alt.=94.307678m. Speed=22.464001m/h.</desc>
<speed>6.240000</speed>
</trkpt>
<trkpt lat="56.103043" lon="26.509249">
<ele>105.0</ele>
<time>2010-08-29T14:58:36Z</time>
<desc>lat.=56.103043, lon.=26.509249, Alt.=93.797913m. Speed=16.091999m/h.</desc>
<speed>4.470000</speed>
</trkpt>
<trkpt lat="56.103401" lon="26.506439">
<ele>105.1</ele>
<time>2010-08-29T14:59:10Z</time>
<desc>lat.=56.103401, lon.=26.506439, Alt.=92.813538m. Speed=18.252001m/h.</desc>
<speed>5.070000</speed>
</trkpt>
<trkpt lat="56.103458" lon="26.501341">
<ele>104.3</ele>
<time>2010-08-29T15:00:06Z</time>
<desc>lat.=56.103458, lon.=26.501341, Alt.=94.227600m. Speed=20.087999m/h.</desc>
<speed>5.580000</speed>
</trkpt>
<trkpt lat="56.105545" lon="26.484819">
<ele>104.6</ele>
<time>2010-08-29T15:03:09Z</time>
<desc>lat.=56.105545, lon.=26.484819, Alt.=85.993225m. Speed=18.216000m/h.</desc>
<speed>5.060000</speed>
</trkpt>
<trkpt lat="56.106747" lon="26.472900">
<ele>103.4</ele>
<time>2010-08-29T15:05:33Z</time>
<desc>lat.=56.106747, lon.=26.472900, Alt.=95.637756m. Speed=14.616000m/h.</desc>
<speed>4.060000</speed>
</trkpt>
<trkpt lat="56.106758" lon="26.471375">
<ele>99.4</ele>
<time>2010-08-29T15:05:50Z</time>
<desc>lat.=56.106758, lon.=26.471375, Alt.=99.036194m. Speed=24.480000m/h.</desc>
<speed>6.800000</speed>
</trkpt>
<trkpt lat="56.106380" lon="26.467106">
<ele>107.4</ele>
<time>2010-08-29T15:06:37Z</time>
<desc>lat.=56.106380, lon.=26.467106, Alt.=100.307678m. Speed=14.472000m/h.</desc>
<speed>4.020000</speed>
</trkpt>
<trkpt lat="56.104519" lon="26.451977">
<ele>101.9</ele>
<time>2010-08-29T15:09:25Z</time>
<desc>lat.=56.104519, lon.=26.451977, Alt.=92.104553m. Speed=18.000000m/h.</desc>
<speed>5.000000</speed>
</trkpt>
<trkpt lat="56.104492" lon="26.451134">
<ele>103.1</ele>
<time>2010-08-29T15:09:33Z</time>
<desc>lat.=56.104492, lon.=26.451134, Alt.=89.940491m. Speed=24.264000m/h.</desc>
<speed>6.740000</speed>
</trkpt>
<trkpt lat="56.104706" lon="26.449846">
<ele>101.4</ele>
<time>2010-08-29T15:09:46Z</time>
<desc>lat.=56.104706, lon.=26.449846, Alt.=101.840881m. Speed=24.948000m/h.</desc>
<speed>6.930000</speed>
</trkpt>
<trkpt lat="56.107059" lon="26.440815">
<ele>101.1</ele>
<time>2010-08-29T15:11:57Z</time>
<desc>lat.=56.107059, lon.=26.440815, Alt.=94.938538m. Speed=17.639999m/h.</desc>
<speed>4.900000</speed>
</trkpt>
<trkpt lat="56.108349" lon="26.438440">
<ele>98.9</ele>
<time>2010-08-29T15:12:31Z</time>
<desc>lat.=56.108349, lon.=26.438440, Alt.=95.081116m. Speed=24.875999m/h.</desc>
<speed>6.910000</speed>
</trkpt>
<trkpt lat="56.109447" lon="26.437082">
<ele>98.9</ele>
<time>2010-08-29T15:12:56Z</time>
<desc>lat.=56.109447, lon.=26.437082, Alt.=97.919006m. Speed=13.140000m/h.</desc>
<speed>3.650000</speed>
</trkpt>
<trkpt lat="56.111103" lon="26.429974">
<ele>98.6</ele>
<time>2010-08-29T15:14:31Z</time>
<desc>lat.=56.111103, lon.=26.429974, Alt.=97.946350m. Speed=25.164000m/h.</desc>
<speed>6.990000</speed>
</trkpt>
<trkpt lat="56.112415" lon="26.427773">
<ele>99.7</ele>
<time>2010-08-29T15:15:11Z</time>
<desc>lat.=56.112415, lon.=26.427773, Alt.=103.088928m. Speed=14.616000m/h.</desc>
<speed>4.060000</speed>
</trkpt>
<trkpt lat="56.112743" lon="26.426920">
<ele>96.9</ele>
<time>2010-08-29T15:15:24Z</time>
<desc>lat.=56.112743, lon.=26.426920, Alt.=100.713928m. Speed=18.936001m/h.</desc>
<speed>5.260000</speed>
</trkpt>
<trkpt lat="56.113811" lon="26.420757">
<ele>93.6</ele>
<time>2010-08-29T15:19:01Z</time>
<desc>lat.=56.113811, lon.=26.420757, Alt.=98.002991m. Speed=14.544000m/h.</desc>
<speed>4.040000</speed>
</trkpt>
<trkpt lat="56.114422" lon="26.418846">
<ele>92.3</ele>
<time>2010-08-29T15:19:31Z</time>
<desc>lat.=56.114422, lon.=26.418846, Alt.=89.690491m. Speed=19.044001m/h.</desc>
<speed>5.290000</speed>
</trkpt>
<trkpt lat="56.114895" lon="26.417946">
<ele>94.5</ele>
<time>2010-08-29T15:19:46Z</time>
<desc>lat.=56.114895, lon.=26.417946, Alt.=85.020569m. Speed=21.059999m/h.</desc>
<speed>5.850000</speed>
</trkpt>
<trkpt lat="56.115692" lon="26.417143">
<ele>96.0</ele>
<time>2010-08-29T15:20:04Z</time>
<desc>lat.=56.115692, lon.=26.417143, Alt.=87.127991m. Speed=21.708000m/h.</desc>
<speed>6.030000</speed>
</trkpt>
<trkpt lat="56.116699" lon="26.416548">
<ele>94.5</ele>
<time>2010-08-29T15:20:22Z</time>
<desc>lat.=56.116699, lon.=26.416548, Alt.=95.770569m. Speed=18.900000m/h.</desc>
<speed>5.250000</speed>
</trkpt>
<trkpt lat="56.118534" lon="26.416155">
<ele>94.2</ele>
<time>2010-08-29T15:20:57Z</time>
<desc>lat.=56.118534, lon.=26.416155, Alt.=93.741272m. Speed=21.996000m/h.</desc>
<speed>6.110000</speed>
</trkpt>
<trkpt lat="56.119457" lon="26.415323">
<ele>98.7</ele>
<time>2010-08-29T15:21:19Z</time>
<desc>lat.=56.119457, lon.=26.415323, Alt.=102.286194m. Speed=19.908001m/h.</desc>
<speed>5.530000</speed>
</trkpt>
<trkpt lat="56.120945" lon="26.412359">
<ele>92.9</ele>
<time>2010-08-29T15:22:00Z</time>
<desc>lat.=56.120945, lon.=26.412359, Alt.=89.256897m. Speed=26.964001m/h.</desc>
<speed>7.490000</speed>
</trkpt>
<trkpt lat="56.122898" lon="26.406374">
<ele>92.6</ele>
<time>2010-08-29T15:23:16Z</time>
<desc>lat.=56.122898, lon.=26.406374, Alt.=97.083069m. Speed=21.024000m/h.</desc>
<speed>5.840000</speed>
</trkpt>
<trkpt lat="56.125324" lon="26.401934">
<ele>96.0</ele>
<time>2010-08-29T15:24:43Z</time>
<desc>lat.=56.125324, lon.=26.401934, Alt.=106.540100m. Speed=16.020000m/h.</desc>
<speed>4.450000</speed>
</trkpt>
<trkpt lat="56.125847" lon="26.399956">
<ele>95.1</ele>
<time>2010-08-29T15:25:14Z</time>
<desc>lat.=56.125847, lon.=26.399956, Alt.=102.438538m. Speed=16.848000m/h.</desc>
<speed>4.680000</speed>
</trkpt>
<trkpt lat="56.126129" lon="26.396635">
<ele>96.4</ele>
<time>2010-08-29T15:25:55Z</time>
<desc>lat.=56.126129, lon.=26.396635, Alt.=94.729553m. Speed=13.176000m/h.</desc>
<speed>3.660000</speed>
</trkpt>
<trkpt lat="56.127415" lon="26.392855">
<ele>99.5</ele>
<time>2010-08-29T15:26:46Z</time>
<desc>lat.=56.127415, lon.=26.392855, Alt.=106.795959m. Speed=21.816000m/h.</desc>
<speed>6.060000</speed>
</trkpt>
<trkpt lat="56.128166" lon="26.389067">
<ele>100.0</ele>
<time>2010-08-29T15:27:29Z</time>
<desc>lat.=56.128166, lon.=26.389067, Alt.=101.649475m. Speed=22.464001m/h.</desc>
<speed>6.240000</speed>
</trkpt>
<trkpt lat="56.128117" lon="26.387840">
<ele>98.6</ele>
<time>2010-08-29T15:27:40Z</time>
<desc>lat.=56.128117, lon.=26.387840, Alt.=97.817444m. Speed=27.792000m/h.</desc>
<speed>7.720000</speed>
</trkpt>
<trkpt lat="56.127106" lon="26.382977">
<ele>101.2</ele>
<time>2010-08-29T15:30:06Z</time>
<desc>lat.=56.127106, lon.=26.382977, Alt.=103.295959m. Speed=13.284000m/h.</desc>
<speed>3.690000</speed>
</trkpt>
<trkpt lat="56.127182" lon="26.381321">
<ele>104.3</ele>
<time>2010-08-29T15:30:29Z</time>
<desc>lat.=56.127182, lon.=26.381321, Alt.=108.655334m. Speed=17.280001m/h.</desc>
<speed>4.800000</speed>
</trkpt>
<trkpt lat="56.129292" lon="26.377411">
<ele>104.9</ele>
<time>2010-08-29T15:31:36Z</time>
<desc>lat.=56.129292, lon.=26.377411, Alt.=124.860413m. Speed=20.268000m/h.</desc>
<speed>5.630000</speed>
</trkpt>
<trkpt lat="56.130276" lon="26.374287">
<ele>103.5</ele>
<time>2010-08-29T15:32:19Z</time>
<desc>lat.=56.130276, lon.=26.374287, Alt.=122.794006m. Speed=18.360001m/h.</desc>
<speed>5.100000</speed>
</trkpt>
<trkpt lat="56.134323" lon="26.366011">
<ele>106.3</ele>
<time>2010-08-29T15:34:20Z</time>
<desc>lat.=56.134323, lon.=26.366011, Alt.=117.325256m. Speed=17.100000m/h.</desc>
<speed>4.750000</speed>
</trkpt>
<trkpt lat="56.135052" lon="26.364872">
<ele>106.7</ele>
<time>2010-08-29T15:34:42Z</time>
<desc>lat.=56.135052, lon.=26.364872, Alt.=108.559631m. Speed=9.720000m/h.</desc>
<speed>2.700000</speed>
</trkpt>
<trkpt lat="56.135250" lon="26.365511">
<ele>106.4</ele>
<time>2010-08-29T15:35:02Z</time>
<desc>lat.=56.135250, lon.=26.365511, Alt.=105.647522m. Speed=8.172000m/h.</desc>
<speed>2.270000</speed>
</trkpt>
<trkpt lat="56.135155" lon="26.366043">
<ele>107.2</ele>
<time>2010-08-29T15:55:42Z</time>
<desc>lat.=56.135155, lon.=26.366043, Alt.=104.983459m. Speed=0.216000m/h.</desc>
<speed>0.060000</speed>
</trkpt>
<trkpt lat="56.134991" lon="26.365686">
<ele>106.1</ele>
<time>2010-08-29T15:56:45Z</time>
<desc>lat.=56.134991, lon.=26.365686, Alt.=107.354553m. Speed=5.688000m/h.</desc>
<speed>1.580000</speed>
</trkpt>
<trkpt lat="56.135250" lon="26.365629">
<ele>106.4</ele>
<time>2010-08-29T15:57:45Z</time>
<desc>lat.=56.135250, lon.=26.365629, Alt.=102.172913m. Speed=4.716000m/h.</desc>
<speed>1.310000</speed>
</trkpt>
<trkpt lat="56.135231" lon="26.364534">
<ele>106.0</ele>
<time>2010-08-29T15:58:14Z</time>
<desc>lat.=56.135231, lon.=26.364534, Alt.=103.178772m. Speed=10.296000m/h.</desc>
<speed>2.860000</speed>
</trkpt>
<trkpt lat="56.138248" lon="26.360451">
<ele>101.0</ele>
<time>2010-08-29T15:59:33Z</time>
<desc>lat.=56.138248, lon.=26.360451, Alt.=85.760803m. Speed=25.091999m/h.</desc>
<speed>6.970000</speed>
</trkpt>
<trkpt lat="56.139172" lon="26.358700">
<ele>101.0</ele>
<time>2010-08-29T16:00:01Z</time>
<desc>lat.=56.139172, lon.=26.358700, Alt.=87.479553m. Speed=18.216000m/h.</desc>
<speed>5.060000</speed>
</trkpt>
<trkpt lat="56.140255" lon="26.355803">
<ele>97.4</ele>
<time>2010-08-29T16:00:42Z</time>
<desc>lat.=56.140255, lon.=26.355803, Alt.=95.194397m. Speed=21.924000m/h.</desc>
<speed>6.090000</speed>
</trkpt>
<trkpt lat="56.142841" lon="26.344835">
<ele>101.6</ele>
<time>2010-08-29T16:02:54Z</time>
<desc>lat.=56.142841, lon.=26.344835, Alt.=91.424866m. Speed=6.840000m/h.</desc>
<speed>1.900000</speed>
</trkpt>
<trkpt lat="56.136700" lon="26.342905">
<ele>100.2</ele>
<time>2010-08-29T16:04:54Z</time>
<desc>lat.=56.136700, lon.=26.342905, Alt.=96.370178m. Speed=21.420000m/h.</desc>
<speed>5.950000</speed>
</trkpt>
<trkpt lat="56.133671" lon="26.342342">
<ele>100.5</ele>
<time>2010-08-29T16:05:45Z</time>
<desc>lat.=56.133671, lon.=26.342342, Alt.=101.090881m. Speed=24.191999m/h.</desc>
<speed>6.720000</speed>
</trkpt>
<trkpt lat="56.130230" lon="26.342432">
<ele>100.2</ele>
<time>2010-08-29T16:06:38Z</time>
<desc>lat.=56.130230, lon.=26.342432, Alt.=104.419006m. Speed=29.448000m/h.</desc>
<speed>8.180000</speed>
</trkpt>
<trkpt lat="56.126850" lon="26.343323">
<ele>99.8</ele>
<time>2010-08-29T16:07:28Z</time>
<desc>lat.=56.126850, lon.=26.343323, Alt.=95.180725m. Speed=27.792000m/h.</desc>
<speed>7.720000</speed>
</trkpt>
<trkpt lat="56.121578" lon="26.345856">
<ele>98.4</ele>
<time>2010-08-29T16:08:46Z</time>
<desc>lat.=56.121578, lon.=26.345856, Alt.=98.176819m. Speed=25.704000m/h.</desc>
<speed>7.140000</speed>
</trkpt>
<trkpt lat="56.075356" lon="26.371246">
<ele>98.9</ele>
<time>2010-08-29T16:24:19Z</time>
<desc>lat.=56.075356, lon.=26.371246, Alt.=99.333069m. Speed=0.432000m/h.</desc>
<speed>0.120000</speed>
</trkpt>
<trkpt lat="56.070652" lon="26.373505">
<ele>101.4</ele>
<time>2010-08-29T16:26:37Z</time>
<desc>lat.=56.070652, lon.=26.373505, Alt.=101.129944m. Speed=22.896000m/h.</desc>
<speed>6.360000</speed>
</trkpt>
<trkpt lat="56.068134" lon="26.374479">
<ele>102.2</ele>
<time>2010-08-29T16:27:20Z</time>
<desc>lat.=56.068134, lon.=26.374479, Alt.=101.682678m. Speed=25.379999m/h.</desc>
<speed>7.050000</speed>
</trkpt>
<trkpt lat="56.063896" lon="26.375593">
<ele>102.4</ele>
<time>2010-08-29T16:28:33Z</time>
<desc>lat.=56.063896, lon.=26.375593, Alt.=103.432678m. Speed=18.108000m/h.</desc>
<speed>5.030000</speed>
</trkpt>
<trkpt lat="56.037464" lon="26.379251">
<ele>109.9</ele>
<time>2010-08-29T16:38:29Z</time>
<desc>lat.=56.037464, lon.=26.379251, Alt.=106.729553m. Speed=0.108000m/h.</desc>
<speed>0.030000</speed>
</trkpt>
<trkpt lat="56.032101" lon="26.380239">
<ele>110.2</ele>
<time>2010-08-29T16:40:24Z</time>
<desc>lat.=56.032101, lon.=26.380239, Alt.=107.428772m. Speed=22.500000m/h.</desc>
<speed>6.250000</speed>
</trkpt>
<trkpt lat="56.029144" lon="26.381037">
<ele>108.5</ele>
<time>2010-08-29T16:41:17Z</time>
<desc>lat.=56.029144, lon.=26.381037, Alt.=105.827209m. Speed=23.364000m/h.</desc>
<speed>6.490000</speed>
</trkpt>
<trkpt lat="56.024841" lon="26.382668">
<ele>102.2</ele>
<time>2010-08-29T16:42:32Z</time>
<desc>lat.=56.024841, lon.=26.382668, Alt.=99.854553m. Speed=24.732000m/h.</desc>
<speed>6.870000</speed>
</trkpt>
<trkpt lat="56.021294" lon="26.384403">
<ele>96.7</ele>
<time>2010-08-29T16:43:28Z</time>
<desc>lat.=56.021294, lon.=26.384403, Alt.=95.586975m. Speed=25.091999m/h.</desc>
<speed>6.970000</speed>
</trkpt>
<trkpt lat="56.013416" lon="26.389448">
<ele>98.8</ele>
<time>2010-08-29T16:46:25Z</time>
<desc>lat.=56.013416, lon.=26.389448, Alt.=97.147522m. Speed=16.667999m/h.</desc>
<speed>4.630000</speed>
</trkpt>
<trkpt lat="56.008785" lon="26.392023">
<ele>108.3</ele>
<time>2010-08-29T16:48:17Z</time>
<desc>lat.=56.008785, lon.=26.392023, Alt.=110.049866m. Speed=17.856001m/h.</desc>
<speed>4.960000</speed>
</trkpt>
<trkpt lat="56.005482" lon="26.394156">
<ele>114.7</ele>
<time>2010-08-29T16:49:39Z</time>
<desc>lat.=56.005482, lon.=26.394156, Alt.=110.645569m. Speed=18.684000m/h.</desc>
<speed>5.190000</speed>
</trkpt>
<trkpt lat="56.002613" lon="26.396780">
<ele>116.6</ele>
<time>2010-08-29T16:50:51Z</time>
<desc>lat.=56.002613, lon.=26.396780, Alt.=112.594788m. Speed=14.832000m/h.</desc>
<speed>4.120000</speed>
</trkpt>
<trkpt lat="56.000141" lon="26.399643">
<ele>116.9</ele>
<time>2010-08-29T16:52:03Z</time>
<desc>lat.=56.000141, lon.=26.399643, Alt.=112.670959m. Speed=15.408000m/h.</desc>
<speed>4.280000</speed>
</trkpt>
<trkpt lat="55.977924" lon="26.427980">
<ele>96.9</ele>
<time>2010-08-29T17:01:49Z</time>
<desc>lat.=55.977924, lon.=26.427980, Alt.=97.450256m. Speed=23.327999m/h.</desc>
<speed>6.480000</speed>
</trkpt>
<trkpt lat="55.973785" lon="26.434118">
<ele>93.1</ele>
<time>2010-08-29T17:03:27Z</time>
<desc>lat.=55.973785, lon.=26.434118, Alt.=96.102600m. Speed=23.076000m/h.</desc>
<speed>6.410000</speed>
</trkpt>
<trkpt lat="55.958439" lon="26.458628">
<ele>94.9</ele>
<time>2010-08-29T17:09:56Z</time>
<desc>lat.=55.958439, lon.=26.458628, Alt.=101.602600m. Speed=14.832000m/h.</desc>
<speed>4.120000</speed>
</trkpt>
<trkpt lat="55.956284" lon="26.461700">
<ele>97.9</ele>
<time>2010-08-29T17:10:58Z</time>
<desc>lat.=55.956284, lon.=26.461700, Alt.=105.055725m. Speed=11.484000m/h.</desc>
<speed>3.190000</speed>
</trkpt>
<trkpt lat="55.953465" lon="26.464830">
<ele>107.8</ele>
<time>2010-08-29T17:12:11Z</time>
<desc>lat.=55.953465, lon.=26.464830, Alt.=102.590881m. Speed=13.716000m/h.</desc>
<speed>3.810000</speed>
</trkpt>
<trkpt lat="55.949158" lon="26.468197">
<ele>104.1</ele>
<time>2010-08-29T17:13:44Z</time>
<desc>lat.=55.949158, lon.=26.468197, Alt.=99.473694m. Speed=16.056000m/h.</desc>
<speed>4.460000</speed>
</trkpt>
<trkpt lat="55.945255" lon="26.470135">
<ele>95.8</ele>
<time>2010-08-29T17:17:18Z</time>
<desc>lat.=55.945255, lon.=26.470135, Alt.=95.641663m. Speed=21.059999m/h.</desc>
<speed>5.850000</speed>
</trkpt>
<trkpt lat="55.943920" lon="26.471767">
<ele>102.1</ele>
<time>2010-08-29T17:17:52Z</time>
<desc>lat.=55.943920, lon.=26.471767, Alt.=87.833069m. Speed=15.084000m/h.</desc>
<speed>4.190000</speed>
</trkpt>
<trkpt lat="55.920345" lon="26.482662">
<ele>103.1</ele>
<time>2010-08-29T17:27:06Z</time>
<desc>lat.=55.920345, lon.=26.482662, Alt.=97.979553m. Speed=23.292000m/h.</desc>
<speed>6.470000</speed>
</trkpt>
<trkpt lat="55.916359" lon="26.483864">
<ele>102.4</ele>
<time>2010-08-29T17:28:33Z</time>
<desc>lat.=55.916359, lon.=26.483864, Alt.=99.665100m. Speed=16.056000m/h.</desc>
<speed>4.460000</speed>
</trkpt>
<trkpt lat="55.915550" lon="26.483650">
<ele>104.2</ele>
<time>2010-08-29T17:28:57Z</time>
<desc>lat.=55.915550, lon.=26.483650, Alt.=99.221741m. Speed=9.612000m/h.</desc>
<speed>2.670000</speed>
</trkpt>
<trkpt lat="55.915562" lon="26.486700">
<ele>103.7</ele>
<time>2010-08-29T17:30:16Z</time>
<desc>lat.=55.915562, lon.=26.486700, Alt.=102.649475m. Speed=6.300000m/h.</desc>
<speed>1.750000</speed>
</trkpt>
<trkpt lat="55.914597" lon="26.488283">
<ele>104.1</ele>
<time>2010-08-29T17:30:59Z</time>
<desc>lat.=55.914597, lon.=26.488283, Alt.=101.327209m. Speed=14.832000m/h.</desc>
<speed>4.120000</speed>
</trkpt>
<trkpt lat="55.914108" lon="26.489521">
<ele>103.0</ele>
<time>2010-08-29T17:31:17Z</time>
<desc>lat.=55.914108, lon.=26.489521, Alt.=96.600647m. Speed=19.691999m/h.</desc>
<speed>5.470000</speed>
</trkpt>
<trkpt lat="55.912090" lon="26.497004">
<ele>98.4</ele>
<time>2010-08-29T17:32:47Z</time>
<desc>lat.=55.912090, lon.=26.497004, Alt.=95.626038m. Speed=31.572001m/h.</desc>
<speed>8.770000</speed>
</trkpt>
<trkpt lat="55.911720" lon="26.499647">
<ele>103.3</ele>
<time>2010-08-29T17:33:13Z</time>
<desc>lat.=55.911720, lon.=26.499647, Alt.=95.501038m. Speed=14.112000m/h.</desc>
<speed>3.920000</speed>
</trkpt>
<trkpt lat="55.911777" lon="26.500038">
<ele>100.7</ele>
<time>2010-08-29T17:33:21Z</time>
<desc>lat.=55.911777, lon.=26.500038, Alt.=95.788147m. Speed=8.136000m/h.</desc>
<speed>2.260000</speed>
</trkpt>
<trkpt lat="55.912395" lon="26.500446">
<ele>96.6</ele>
<time>2010-08-29T17:33:42Z</time>
<desc>lat.=55.912395, lon.=26.500446, Alt.=94.573303m. Speed=13.068000m/h.</desc>
<speed>3.630000</speed>
</trkpt>
<trkpt lat="55.912338" lon="26.501228">
<ele>97.8</ele>
<time>2010-08-29T17:33:59Z</time>
<desc>lat.=55.912338, lon.=26.501228, Alt.=98.551819m. Speed=3.780000m/h.</desc>
<speed>1.050000</speed>
</trkpt>
<trkpt lat="55.912178" lon="26.501219">
<ele>98.0</ele>
<time>2010-08-29T17:38:18Z</time>
<desc>lat.=55.912178, lon.=26.501219, Alt.=97.680725m. Speed=0.036000m/h.</desc>
<speed>0.010000</speed>
</trkpt>
<trkpt lat="55.912132" lon="26.501488">
<ele>98.3</ele>
<time>2010-08-29T17:50:00Z</time>
<desc>lat.=55.912132, lon.=26.501488, Alt.=93.256897m. Speed=1.296000m/h.</desc>
<speed>0.360000</speed>
</trkpt>
<trkpt lat="55.912247" lon="26.501314">
<ele>98.0</ele>
<time>2010-08-29T17:58:28Z</time>
<desc>lat.=55.912247, lon.=26.501314, Alt.=96.225647m. Speed=0.540000m/h.</desc>
<speed>0.150000</speed>
</trkpt>
<trkpt lat="55.912315" lon="26.501492">
<ele>98.3</ele>
<time>2010-08-29T17:58:43Z</time>
<desc>lat.=55.912315, lon.=26.501492, Alt.=97.282288m. Speed=4.248000m/h.</desc>
<speed>1.180000</speed>
</trkpt>
<trkpt lat="55.912231" lon="26.503561">
<ele>101.5</ele>
<time>2010-08-29T17:59:48Z</time>
<desc>lat.=55.912231, lon.=26.503561, Alt.=95.905334m. Speed=6.084000m/h.</desc>
<speed>1.690000</speed>
</trkpt>
<trkpt lat="55.911491" lon="26.503592">
<ele>101.2</ele>
<time>2010-08-29T18:00:25Z</time>
<desc>lat.=55.911491, lon.=26.503592, Alt.=94.600647m. Speed=7.632000m/h.</desc>
<speed>2.120000</speed>
</trkpt>
<trkpt lat="55.911385" lon="26.506119">
<ele>99.8</ele>
<time>2010-08-29T18:01:05Z</time>
<desc>lat.=55.911385, lon.=26.506119, Alt.=93.024475m. Speed=25.884001m/h.</desc>
<speed>7.190000</speed>
</trkpt>
<trkpt lat="55.910942" lon="26.508177">
<ele>96.8</ele>
<time>2010-08-29T18:01:27Z</time>
<desc>lat.=55.910942, lon.=26.508177, Alt.=94.299866m. Speed=17.964001m/h.</desc>
<speed>4.990000</speed>
</trkpt>
<trkpt lat="55.908916" lon="26.511824">
<ele>97.6</ele>
<time>2010-08-29T18:02:39Z</time>
<desc>lat.=55.908916, lon.=26.511824, Alt.=82.340881m. Speed=12.384000m/h.</desc>
<speed>3.440000</speed>
</trkpt>
<trkpt lat="55.906998" lon="26.511911">
<ele>98.4</ele>
<time>2010-08-29T18:03:30Z</time>
<desc>lat.=55.906998, lon.=26.511911, Alt.=90.169006m. Speed=13.896000m/h.</desc>
<speed>3.860000</speed>
</trkpt>
<trkpt lat="55.903805" lon="26.513502">
<ele>102.5</ele>
<time>2010-08-29T18:04:47Z</time>
<desc>lat.=55.903805, lon.=26.513502, Alt.=88.762756m. Speed=18.360001m/h.</desc>
<speed>5.100000</speed>
</trkpt>
<trkpt lat="55.902348" lon="26.513847">
<ele>97.9</ele>
<time>2010-08-29T18:05:19Z</time>
<desc>lat.=55.902348, lon.=26.513847, Alt.=85.032288m. Speed=22.968000m/h.</desc>
<speed>6.380000</speed>
</trkpt>
<trkpt lat="55.899311" lon="26.517641">
<ele>96.1</ele>
<time>2010-08-29T18:06:33Z</time>
<desc>lat.=55.899311, lon.=26.517641, Alt.=91.239319m. Speed=0.396000m/h.</desc>
<speed>0.110000</speed>
</trkpt>
<trkpt lat="55.899540" lon="26.518627">
<ele>95.0</ele>
<time>2010-08-29T18:07:04Z</time>
<desc>lat.=55.899540, lon.=26.518627, Alt.=91.325256m. Speed=12.240000m/h.</desc>
<speed>3.400000</speed>
</trkpt>
<trkpt lat="55.900875" lon="26.522062">
<ele>98.7</ele>
<time>2010-08-29T18:08:12Z</time>
<desc>lat.=55.900875, lon.=26.522062, Alt.=94.547913m. Speed=8.028000m/h.</desc>
<speed>2.230000</speed>
</trkpt>
<trkpt lat="55.900848" lon="26.526201">
<ele>105.7</ele>
<time>2010-08-29T18:09:42Z</time>
<desc>lat.=55.900848, lon.=26.526201, Alt.=114.528381m. Speed=4.356000m/h.</desc>
<speed>1.210000</speed>
</trkpt>
<trkpt lat="55.900127" lon="26.528612">
<ele>111.4</ele>
<time>2010-08-29T18:11:53Z</time>
<desc>lat.=55.900127, lon.=26.528612, Alt.=102.655334m. Speed=0.576000m/h.</desc>
<speed>0.160000</speed>
</trkpt>
<trkpt lat="55.900024" lon="26.529522">
<ele>107.1</ele>
<time>2010-08-29T18:12:18Z</time>
<desc>lat.=55.900024, lon.=26.529522, Alt.=102.432678m. Speed=2.520000m/h.</desc>
<speed>0.700000</speed>
</trkpt>
<trkpt lat="55.900311" lon="26.529224">
<ele>109.6</ele>
<time>2010-08-29T18:12:47Z</time>
<desc>lat.=55.900311, lon.=26.529224, Alt.=102.194397m. Speed=1.908000m/h.</desc>
<speed>0.530000</speed>
</trkpt>
<trkpt lat="55.900249" lon="26.528938">
<ele>109.3</ele>
<time>2010-08-29T18:14:17Z</time>
<desc>lat.=55.900249, lon.=26.528938, Alt.=100.911194m. Speed=0.540000m/h.</desc>
<speed>0.150000</speed>
</trkpt>
<trkpt lat="55.900383" lon="26.528955">
<ele>108.7</ele>
<time>2010-08-29T18:15:27Z</time>
<desc>lat.=55.900383, lon.=26.528955, Alt.=101.682678m. Speed=0.216000m/h.</desc>
<speed>0.060000</speed>
</trkpt>
<trkpt lat="55.900154" lon="26.529068">
<ele>109.3</ele>
<time>2010-08-29T18:21:10Z</time>
<desc>lat.=55.900154, lon.=26.529068, Alt.=90.952209m. Speed=0.792000m/h.</desc>
<speed>0.220000</speed>
</trkpt>
</trkseg>
</trk>
</gpx>